Observation data for JA Ranch on 11/13/2019      Previous  Date       Current Mesonet Observations  Soil Data  Daily Summary Page  Observations in Plain Language
KPD3 130600Z 19009KT 01/M09 A3014 RMK A01 T00131094  RH  045%=      5-min Rain = 0
KPD3 130601Z 19009KT 01/M10 A3014 RMK A01 T00121095  RH  045%=      5-min Rain = 0
KPD3 130602Z 18009KT 01/M10 A3014 RMK A01 T00121095  RH  045%=      5-min Rain = 0
KPD3 130603Z 18008KT 01/M10 A3014 RMK A01 T00121095  RH  045%=      5-min Rain = 0
KPD3 130604Z 18008KT 01/M10 A3014 RMK A01 T00111096  RH  045%=      5-min Rain = 0
KPD3 130605Z 18008KT 01/M10 A3014 RMK A01 T00111096  RH  045%=      5-min Rain = 0
KPD3 130606Z 18008KT 01/M10 A3014 RMK A01 T00111096  RH  045%=      5-min Rain = 0
KPD3 130607Z 18008KT 01/M10 A3014 RMK A01 T00111096  RH  045%=      5-min Rain = 0
KPD3 130608Z 18008KT 01/M10 A3014 RMK A01 T00111096  RH  045%=      5-min Rain = 0
KPD3 130609Z 18008KT 01/M10 A3014 RMK A01 T00111096  RH  045%=      5-min Rain = 0
KPD3 130610Z 18008KT 01/M10 A3014 RMK A01 T00101096  RH  045%=      5-min Rain = 0
KPD3 130611Z 18009KT 01/M10 A3014 RMK A01 T00101096  RH  045%=      5-min Rain = 0
KPD3 130612Z 18008KT 01/M10 A3014 RMK A01 T00101096  RH  045%=      5-min Rain = 0
KPD3 130613Z 19008KT 01/M10 A3014 RMK A01 T00101096  RH  045%=      5-min Rain = 0
KPD3 130614Z 19008KT 01/M10 A3014 RMK A01 T00091096  RH  045%=      5-min Rain = 0
KPD3 130615Z 19009KT 01/M10 A3014 RMK A01 T00091096  RH  045%=      5-min Rain = 0
KPD3 130616Z 19008KT 01/M10 A3014 RMK A01 T00101097  RH  045%=      5-min Rain = 0
KPD3 130617Z 19007KT 01/M10 A3013 RMK A01 T00101097  RH  045%=      5-min Rain = 0
KPD3 130618Z 19007KT 01/M10 A3013 RMK A01 T00101097  RH  045%=      5-min Rain = 0
KPD3 130619Z 18008KT 01/M10 A3013 RMK A01 T00111097  RH  044%=      5-min Rain = 0
KPD3 130620Z 18007KT 01/M10 A3013 RMK A01 T00111098  RH  044%=      5-min Rain = 0
KPD3 130621Z 18008KT 01/M10 A3013 RMK A01 T00111098  RH  044%=      5-min Rain = 0
KPD3 130622Z 18008KT 01/M10 A3013 RMK A01 T00111098  RH  044%=      5-min Rain = 0
KPD3 130623Z 18007KT 01/M10 A3013 RMK A01 T00111098  RH  044%=      5-min Rain = 0
KPD3 130624Z 18007KT 01/M10 A3013 RMK A01 T00121098  RH  044%=      5-min Rain = 0
KPD3 130625Z 18008KT 01/M10 A3013 RMK A01 T00121098  RH  044%=      5-min Rain = 0
KPD3 130626Z 17006KT 01/M10 A3013 RMK A01 T00121098  RH  044%=      5-min Rain = 0
KPD3 130627Z 16006KT 01/M10 A3013 RMK A01 T00121098  RH  044%=      5-min Rain = 0
KPD3 130628Z 16007KT 01/M10 A3013 RMK A01 T00111099  RH  044%=      5-min Rain = 0
KPD3 130629Z 17008KT 01/M10 A3013 RMK A01 T00101099  RH  044%=      5-min Rain = 0
KPD3 130630Z 17009KT 01/M10 A3013 RMK A01 T00091099  RH  044%=      5-min Rain = 0
KPD3 130631Z 17008KT 01/M10 A3013 RMK A01 T00101099  RH  044%=      5-min Rain = 0
KPD3 130632Z 17007KT 01/M10 A3013 RMK A01 T00111099  RH  044%=      5-min Rain = 0
KPD3 130633Z 16008KT 01/M10 A3013 RMK A01 T00111099  RH  044%=      5-min Rain = 0
KPD3 130634Z 17008KT 01/M10 A3013 RMK A01 T00111099  RH  044%=      5-min Rain = 0
KPD3 130635Z 17007KT 01/M10 A3013 RMK A01 T00111099  RH  043%=      5-min Rain = 0
KPD3 130636Z 16007KT 01/M10 A3012 RMK A01 T00111099  RH  043%=      5-min Rain = 0
KPD3 130637Z 16006KT 01/M10 A3012 RMK A01 T00111100  RH  043%=      5-min Rain = 0
KPD3 130638Z 16007KT 01/M10 A3012 RMK A01 T00101100  RH  044%=      5-min Rain = 0
KPD3 130639Z 18007KT 01/M10 A3012 RMK A01 T00091100  RH  044%=      5-min Rain = 0
KPD3 130640Z 16007KT 01/M10 A3012 RMK A01 T00101099  RH  044%=      5-min Rain = 0
KPD3 130641Z 14006KT 01/M10 A3012 RMK A01 T00101099  RH  044%=      5-min Rain = 0
KPD3 130642Z 13005KT 01/M10 A3012 RMK A01 T00081100  RH  044%=      5-min Rain = 0
KPD3 130643Z 13005KT 01/M10 A3012 RMK A01 T00051101  RH  045%=      5-min Rain = 0
KPD3 130644Z 12006KT 00/M10 A3012 RMK A01 T00021102  RH  046%=      5-min Rain = 0
KPD3 130645Z 12006KT M00/M10 A3012 RMK A01 T10011102  RH  047%=      5-min Rain = 0
KPD3 130646Z 13006KT M00/M10 A3012 RMK A01 T10021102  RH  047%=      5-min Rain = 0
KPD3 130647Z 15007KT M00/M10 A3012 RMK A01 T10031100  RH  048%=      5-min Rain = 0
KPD3 130648Z 15005KT 00/M10 A3012 RMK A01 T00011099  RH  047%=      5-min Rain = 0
KPD3 130649Z 15005KT 00/M10 A3012 RMK A01 T00031099  RH  046%=      5-min Rain = 0
KPD3 130650Z 13005KT 00/M10 A3012 RMK A01 T00031099  RH  046%=      5-min Rain = 0
KPD3 130651Z 12005KT 00/M10 A3012 RMK A01 T00021100  RH  046%=      5-min Rain = 0
KPD3 130652Z 12005KT 00/10 A3012 RMK A01 T00000-101  RH  046%=      5-min Rain = 0
KPD3 130653Z 12005KT M00/M10 A3012 RMK A01 T10021101  RH  047%=      5-min Rain = 0
KPD3 130654Z 13004KT M00/M10 A3012 RMK A01 T10031100  RH  048%=      5-min Rain = 0
KPD3 130655Z 13004KT M00/M10 A3012 RMK A01 T10031100  RH  048%=      5-min Rain = 0
KPD3 130656Z 12005KT M00/M10 A3012 RMK A01 T10041101  RH  048%=      5-min Rain = 0
KPD3 130657Z 10006KT M01/M10 A3012 RMK A01 T10051101  RH  048%=      5-min Rain = 0
KPD3 130658Z 11005KT M01/M10 A3012 RMK A01 T10081102  RH  049%=      5-min Rain = 0
KPD3 130659Z 11006KT M01/M10 A3011 RMK A01 T10071101  RH  049%=      5-min Rain = 0
KPD3 130700Z 13005KT M01/M10 A3012 RMK A01 T10061099  RH  049%=      5-min Rain = 0
KPD3 130701Z 12005KT M00/M10 A3012 RMK A01 T10031099  RH  048%=      5-min Rain = 0
KPD3 130702Z 12005KT M00/M10 A3012 RMK A01 T10021100  RH  048%=      5-min Rain = 0
KPD3 130703Z 12004KT M00/M10 A3011 RMK A01 T10031100  RH  048%=      5-min Rain = 0
KPD3 130704Z 12004KT M01/M10 A3011 RMK A01 T10051101  RH  048%=      5-min Rain = 0
KPD3 130705Z 10005KT M01/M10 A3011 RMK A01 T10051101  RH  048%=      5-min Rain = 0
KPD3 130706Z 10005KT M00/M10 A3011 RMK A01 T10041100  RH  048%=      5-min Rain = 0
KPD3 130707Z 11006KT M00/M10 A3011 RMK A01 T10031100  RH  048%=      5-min Rain = 0
KPD3 130708Z 11005KT M00/M10 A3011 RMK A01 T10041101  RH  048%=      5-min Rain = 0
KPD3 130709Z 11006KT M01/M10 A3011 RMK A01 T10051100  RH  049%=      5-min Rain = 0
KPD3 130710Z 12005KT M01/M10 A3011 RMK A01 T10051100  RH  049%=      5-min Rain = 0
KPD3 130711Z 11003KT M01/M10 A3011 RMK A01 T10051100  RH  049%=      5-min Rain = 0
KPD3 130712Z 13004KT M01/M10 A3011 RMK A01 T10051100  RH  048%=      5-min Rain = 0
KPD3 130713Z 14004KT M00/M10 A3011 RMK A01 T10041101  RH  048%=      5-min Rain = 0
KPD3 130714Z 13003KT M00/M10 A3011 RMK A01 T10041101  RH  048%=      5-min Rain = 0
KPD3 130715Z 12003KT M01/M10 A3011 RMK A01 T10051101  RH  048%=      5-min Rain = 0
KPD3 130716Z 14003KT M00/M10 A3011 RMK A01 T10041101  RH  048%=      5-min Rain = 0
KPD3 130717Z 11002KT M00/M10 A3011 RMK A01 T10041101  RH  048%=      5-min Rain = 0
KPD3 130718Z 12002KT M00/M10 A3011 RMK A01 T10021101  RH  047%=      5-min Rain = 0
KPD3 130719Z 13002KT M00/M10 A3011 RMK A01 T10011101  RH  047%=      5-min Rain = 0
KPD3 130720Z 11003KT M00/M10 A3011 RMK A01 T10011101  RH  047%=      5-min Rain = 0
KPD3 130721Z 11003KT M00/M10 A3011 RMK A01 T10011101  RH  047%=      5-min Rain = 0
KPD3 130722Z 12003KT M00/M10 A3011 RMK A01 T10021102  RH  047%=      5-min Rain = 0
KPD3 130723Z 10004KT M00/M10 A3011 RMK A01 T10011101  RH  047%=      5-min Rain = 0
KPD3 130724Z 11003KT M00/M10 A301 RMK A01 T10011102  RH  047%=      5-min Rain = 0
KPD3 130725Z 11003KT M00/M10 A301 RMK A01 T10011102  RH  047%=      5-min Rain = 0
KPD3 130726Z 10004KT M00/M10 A301 RMK A01 T10011102  RH  047%=      5-min Rain = 0
KPD3 130727Z 10003KT 00/10 A301 RMK A01 T00-00-102  RH  046%=      5-min Rain = 0
KPD3 130728Z 11004KT 00/M10 A301 RMK A01 T00021102  RH  046%=      5-min Rain = 0
KPD3 130729Z 11005KT 00/M10 A301 RMK A01 T00031102  RH  045%=      5-min Rain = 0
KPD3 130730Z 11004KT 00/10 A301 RMK A01 T00000-102  RH  046%=      5-min Rain = 0
KPD3 130731Z 11005KT M00/M10 A301 RMK A01 T10011101  RH  047%=      5-min Rain = 0
KPD3 130732Z 12004KT M00/M10 A301 RMK A01 T10021102  RH  047%=      5-min Rain = 0
KPD3 130733Z 12004KT M00/M10 A301 RMK A01 T10021102  RH  047%=      5-min Rain = 0
KPD3 130734Z 11004KT M00/M10 A301 RMK A01 T10031103  RH  047%=      5-min Rain = 0
KPD3 130735Z 11004KT 00/10 A301 RMK A01 T00000-102  RH  046%=      5-min Rain = 0
KPD3 130736Z 13002KT 00/M10 A301 RMK A01 T00031102  RH  045%=      5-min Rain = 0
KPD3 130737Z 10002KT 01/M10 A301 RMK A01 T00091101  RH  044%=      5-min Rain = 0
KPD3 130738Z 10003KT 01/M10 A301 RMK A01 T00101102  RH  043%=      5-min Rain = 0
KPD3 130739Z 14002KT 01/M10 A301 RMK A01 T00081104  RH  043%=      5-min Rain = 0
KPD3 130740Z 11004KT 01/M10 A301 RMK A01 T00061104  RH  044%=      5-min Rain = 0
KPD3 130741Z 11005KT 00/M10 A301 RMK A01 T00031104  RH  044%=      5-min Rain = 0
KPD3 130742Z 12004KT M00/M11 A301 RMK A01 T10011105  RH  046%=      5-min Rain = 0
KPD3 130743Z 12004KT M01/M11 A301 RMK A01 T10051105  RH  047%=      5-min Rain = 0
KPD3 130744Z 12004KT M01/M11 A301 RMK A01 T10091106  RH  048%=      5-min Rain = 0
KPD3 130745Z 11003KT M01/M11 A301 RMK A01 T10121106  RH  049%=      5-min Rain = 0
KPD3 130746Z 12004KT M01/M10 A301 RMK A01 T10121104  RH  050%=      5-min Rain = 0
KPD3 130747Z 12004KT M01/M10 A301 RMK A01 T10131104  RH  050%=      5-min Rain = 0
KPD3 130748Z 13003KT M01/M10 A301 RMK A01 T10131104  RH  050%=      5-min Rain = 0
KPD3 130749Z 14003KT M01/M10 A301 RMK A01 T10131104  RH  050%=      5-min Rain = 0
KPD3 130750Z 14002KT M01/M10 A301 RMK A01 T10131104  RH  050%=      5-min Rain = 0
KPD3 130751Z 17002KT M01/M10 A301 RMK A01 T10131104  RH  050%=      5-min Rain = 0
KPD3 130752Z 17003KT M02/M11 A301 RMK A01 T10151105  RH  050%=      5-min Rain = 0
KPD3 130753Z 19002KT M02/M11 A301 RMK A01 T10161105  RH  051%=      5-min Rain = 0
KPD3 130754Z 22003KT M02/M11 A301 RMK A01 T10161105  RH  051%=      5-min Rain = 0
KPD3 130755Z 20003KT M02/M11 A301 RMK A01 T10161105  RH  051%=      5-min Rain = 0
KPD3 130756Z 19003KT M01/M10 A301 RMK A01 T10141104  RH  050%=      5-min Rain = 0
KPD3 130757Z 19003KT M01/M10 A301 RMK A01 T10111103  RH  049%=      5-min Rain = 0
KPD3 130758Z 20005KT M01/M10 A301 RMK A01 T10081103  RH  049%=      5-min Rain = 0
KPD3 130759Z 19005KT M01/M10 A301 RMK A01 T10051104  RH  047%=      5-min Rain = 0
KPD3 130800Z 17004KT M00/M10 A301 RMK A01 T10031103  RH  047%=      5-min Rain = 0
KPD3 130801Z 18003KT M00/M10 A301 RMK A01 T10031104  RH  046%=      5-min Rain = 0
KPD3 130802Z 17003KT M01/M11 A301 RMK A01 T10051105  RH  047%=      5-min Rain = 0
KPD3 130803Z 20003KT M01/M11 A301 RMK A01 T10061105  RH  047%=      5-min Rain = 0
KPD3 130804Z 19004KT M01/M11 A3009 RMK A01 T10071105  RH  047%=      5-min Rain = 0
KPD3 130805Z 17004KT M01/M11 A3009 RMK A01 T10071105  RH  047%=      5-min Rain = 0
KPD3 130806Z 18004KT M01/M10 A3009 RMK A01 T10051103  RH  047%=      5-min Rain = 0
KPD3 130807Z 17004KT M01/M10 A3009 RMK A01 T10051103  RH  047%=      5-min Rain = 0
KPD3 130808Z 17004KT M01/M10 A3009 RMK A01 T10051104  RH  047%=      5-min Rain = 0
KPD3 130809Z 16003KT M01/M11 A3009 RMK A01 T10071105  RH  048%=      5-min Rain = 0
KPD3 130810Z 17003KT M01/M11 A3009 RMK A01 T10081105  RH  048%=      5-min Rain = 0
KPD3 130811Z 17003KT M01/M11 A3009 RMK A01 T10091105  RH  048%=      5-min Rain = 0
KPD3 130812Z 16003KT M01/M11 A3009 RMK A01 T10091105  RH  048%=      5-min Rain = 0
KPD3 130813Z 17003KT M01/M11 A3009 RMK A01 T10091105  RH  048%=      5-min Rain = 0
KPD3 130814Z 17003KT M01/M11 A3009 RMK A01 T10101105  RH  048%=      5-min Rain = 0
KPD3 130815Z 15003KT M01/M11 A3009 RMK A01 T10101106  RH  048%=      5-min Rain = 0
KPD3 130816Z 16004KT M01/M11 A3009 RMK A01 T10101105  RH  048%=      5-min Rain = 0
KPD3 130817Z 16003KT M01/M11 A3009 RMK A01 T10081105  RH  048%=      5-min Rain = 0
KPD3 130818Z 15003KT M01/M11 A3009 RMK A01 T10071105  RH  047%=      5-min Rain = 0
KPD3 130819Z 15004KT M01/M11 A3009 RMK A01 T10071105  RH  047%=      5-min Rain = 0
KPD3 130820Z 15004KT M01/M11 A3008 RMK A01 T10091106  RH  048%=      5-min Rain = 0
KPD3 130821Z 16004KT M01/M11 A3008 RMK A01 T10111106  RH  049%=      5-min Rain = 0
KPD3 130822Z 16004KT M01/M11 A3008 RMK A01 T10101105  RH  049%=      5-min Rain = 0
KPD3 130823Z 15005KT M01/M11 A3008 RMK A01 T10081105  RH  048%=      5-min Rain = 0
KPD3 130824Z 16005KT M01/M11 A3008 RMK A01 T10081105  RH  048%=      5-min Rain = 0
KPD3 130825Z 17006KT M01/M11 A3008 RMK A01 T10091106  RH  048%=      5-min Rain = 0
KPD3 130826Z 18006KT M01/M10 A3008 RMK A01 T10101104  RH  049%=      5-min Rain = 0
KPD3 130827Z 18007KT M01/M10 A3008 RMK A01 T10091103  RH  049%=      5-min Rain = 0
KPD3 130828Z 18006KT M01/M10 A3008 RMK A01 T10081102  RH  049%=      5-min Rain = 0
KPD3 130829Z 19006KT M01/M10 A3008 RMK A01 T10071101  RH  049%=      5-min Rain = 0
KPD3 130830Z 18005KT M01/M10 A3008 RMK A01 T10071100  RH  049%=      5-min Rain = 0
KPD3 130831Z 18005KT M01/M10 A3008 RMK A01 T10061100  RH  049%=      5-min Rain = 0
KPD3 130832Z 18005KT M01/M10 A3008 RMK A01 T10051101  RH  049%=      5-min Rain = 0
KPD3 130833Z 19004KT M01/M10 A3008 RMK A01 T10061101  RH  048%=      5-min Rain = 0
KPD3 130834Z 18002KT M01/M10 A3008 RMK A01 T10061101  RH  049%=      5-min Rain = 0
KPD3 130835Z 13002KT M01/M10 A3008 RMK A01 T10071102  RH  049%=      5-min Rain = 0
KPD3 130836Z 10003KT M01/M10 A3008 RMK A01 T10081102  RH  049%=      5-min Rain = 0
KPD3 130837Z 11002KT M01/M10 A3008 RMK A01 T10081103  RH  048%=      5-min Rain = 0
KPD3 130838Z 12002KT M01/M10 A3007 RMK A01 T10071103  RH  048%=      5-min Rain = 0
KPD3 130839Z 12001KT M01/M10 A3007 RMK A01 T10071104  RH  048%=      5-min Rain = 0
KPD3 130840Z 08001KT M01/M10 A3007 RMK A01 T10061104  RH  048%=      5-min Rain = 0
KPD3 130841Z 08003KT M01/M10 A3007 RMK A01 T10061103  RH  048%=      5-min Rain = 0
KPD3 130842Z 10004KT M01/M10 A3007 RMK A01 T10091103  RH  049%=      5-min Rain = 0
KPD3 130843Z 11004KT M01/M10 A3007 RMK A01 T10121103  RH  050%=      5-min Rain = 0
KPD3 130844Z 11004KT M02/M10 A3007 RMK A01 T10151103  RH  051%=      5-min Rain = 0
KPD3 130845Z 11004KT M02/M10 A3007 RMK A01 T10171103  RH  052%=      5-min Rain = 0
KPD3 130846Z 10003KT M02/M10 A3007 RMK A01 T10181102  RH  053%=      5-min Rain = 0
KPD3 130847Z 11004KT M02/M10 A3007 RMK A01 T10181102  RH  053%=      5-min Rain = 0
KPD3 130848Z 11004KT M02/M10 A3007 RMK A01 T10191101  RH  053%=      5-min Rain = 0
KPD3 130849Z 12003KT M02/M10 A3007 RMK A01 T10211102  RH  054%=      5-min Rain = 0
KPD3 130850Z 13003KT M02/M10 A3007 RMK A01 T10221102  RH  054%=      5-min Rain = 0
KPD3 130851Z 14003KT M02/M10 A3007 RMK A01 T10221102  RH  054%=      5-min Rain = 0
KPD3 130852Z 16003KT M02/M10 A3007 RMK A01 T10221102  RH  054%=      5-min Rain = 0
KPD3 130853Z 16003KT M02/M10 A3007 RMK A01 T10221102  RH  054%=      5-min Rain = 0
KPD3 130854Z 15003KT M02/M10 A3007 RMK A01 T10241103  RH  055%=      5-min Rain = 0
KPD3 130855Z 15004KT M03/M10 A3007 RMK A01 T10271104  RH  055%=      5-min Rain = 0
KPD3 130856Z 15003KT M03/M11 A3007 RMK A01 T10301105  RH  056%=      5-min Rain = 0
KPD3 130857Z 16003KT M03/M11 A3006 RMK A01 T10311105  RH  057%=      5-min Rain = 0
KPD3 130858Z 16003KT M03/M10 A3006 RMK A01 T10311104  RH  057%=      5-min Rain = 0
KPD3 130859Z 17003KT M03/M10 A3006 RMK A01 T10271102  RH  056%=      5-min Rain = 0
KPD3 130900Z 16004KT M03/M10 A3007 RMK A01 T10251103  RH  055%=      5-min Rain = 0
KPD3 130901Z 17003KT M03/M10 A3007 RMK A01 T10251103  RH  055%=      5-min Rain = 0
KPD3 130902Z 16003KT M02/M10 A3007 RMK A01 T10221103  RH  054%=      5-min Rain = 0
KPD3 130903Z 17002KT M02/M10 A3007 RMK A01 T10211102  RH  054%=      5-min Rain = 0
KPD3 130904Z 17002KT M02/M10 A3007 RMK A01 T10211103  RH  053%=      5-min Rain = 0
KPD3 130905Z 16002KT M02/M10 A3007 RMK A01 T10201103  RH  053%=      5-min Rain = 0
KPD3 130906Z 17002KT M02/M10 A3007 RMK A01 T10201103  RH  053%=      5-min Rain = 0
KPD3 130907Z 18002KT M02/M10 A3007 RMK A01 T10191104  RH  053%=      5-min Rain = 0
KPD3 130908Z 18002KT M02/M10 A3007 RMK A01 T10171104  RH  052%=      5-min Rain = 0
KPD3 130909Z 19001KT M02/M10 A3007 RMK A01 T10151103  RH  051%=      5-min Rain = 0
KPD3 130910Z 18002KT M01/M10 A3006 RMK A01 T10141104  RH  051%=      5-min Rain = 0
KPD3 130911Z 19002KT M01/M10 A3006 RMK A01 T10141104  RH  050%=      5-min Rain = 0
KPD3 130912Z 18002KT M01/M10 A3006 RMK A01 T10141104  RH  050%=      5-min Rain = 0
KPD3 130913Z 18002KT M01/M10 A3006 RMK A01 T10121104  RH  050%=      5-min Rain = 0
KPD3 130914Z 16001KT M01/M10 A3006 RMK A01 T10121104  RH  050%=      5-min Rain = 0
KPD3 130915Z 13001KT M01/M10 A3006 RMK A01 T10131104  RH  050%=      5-min Rain = 0
KPD3 130916Z 13002KT M02/M11 A3006 RMK A01 T10171105  RH  051%=      5-min Rain = 0
KPD3 130917Z 14002KT M02/M10 A3006 RMK A01 T10181104  RH  052%=      5-min Rain = 0
KPD3 130918Z 14002KT M02/M10 A3006 RMK A01 T10191104  RH  052%=      5-min Rain = 0
KPD3 130919Z 17003KT M02/M10 A3005 RMK A01 T10201104  RH  053%=      5-min Rain = 0
KPD3 130920Z 14005KT M02/M10 A3005 RMK A01 T10191103  RH  053%=      5-min Rain = 0
KPD3 130921Z 15005KT M02/M10 A3005 RMK A01 T10191102  RH  053%=      5-min Rain = 0
KPD3 130922Z 15006KT M02/M10 A3005 RMK A01 T10201103  RH  053%=      5-min Rain = 0
KPD3 130923Z 15005KT M02/M10 A3005 RMK A01 T10221102  RH  054%=      5-min Rain = 0
KPD3 130924Z 16006KT M03/M10 A3005 RMK A01 T10251102  RH  055%=      5-min Rain = 0
KPD3 130925Z 16006KT M03/M10 A3005 RMK A01 T10261102  RH  056%=      5-min Rain = 0
KPD3 130926Z 16006KT M03/M10 A3005 RMK A01 T10261100  RH  057%=      5-min Rain = 0
KPD3 130927Z 17006KT M02/M10 A3005 RMK A01 T10241098  RH  057%=      5-min Rain = 0
KPD3 130928Z 16006KT M02/M10 A3005 RMK A01 T10211097  RH  056%=      5-min Rain = 0
KPD3 130929Z 16006KT M02/M10 A3005 RMK A01 T10201097  RH  055%=      5-min Rain = 0
KPD3 130930Z 16005KT M02/M10 A3005 RMK A01 T10191097  RH  055%=      5-min Rain = 0
KPD3 130931Z 15006KT M02/M10 A3005 RMK A01 T10171097  RH  054%=      5-min Rain = 0
KPD3 130932Z 15006KT M02/M10 A3005 RMK A01 T10171097  RH  054%=      5-min Rain = 0
KPD3 130933Z 16006KT M02/M10 A3005 RMK A01 T10161098  RH  054%=      5-min Rain = 0
KPD3 130934Z 16006KT M02/M10 A3005 RMK A01 T10151098  RH  053%=      5-min Rain = 0
KPD3 130935Z 16005KT M02/M10 A3005 RMK A01 T10151099  RH  053%=      5-min Rain = 0
KPD3 130936Z 16006KT M02/M10 A3005 RMK A01 T10161099  RH  053%=      5-min Rain = 0
KPD3 130937Z 15006KT M02/M10 A3005 RMK A01 T10181100  RH  054%=      5-min Rain = 0
KPD3 130938Z 15007KT M02/M10 A3005 RMK A01 T10191100  RH  054%=      5-min Rain = 0
KPD3 130939Z 14008KT M02/M10 A3005 RMK A01 T10201100  RH  055%=      5-min Rain = 0
KPD3 130940Z 14008KT M02/M10 A3004 RMK A01 T10211099  RH  055%=      5-min Rain = 0
KPD3 130941Z 14008KT M02/M10 A3004 RMK A01 T10201098  RH  055%=      5-min Rain = 0
KPD3 130942Z 14007KT M02/M10 A3004 RMK A01 T10181097  RH  055%=      5-min Rain = 0
KPD3 130943Z 14007KT M02/M10 A3004 RMK A01 T10171097  RH  054%=      5-min Rain = 0
KPD3 130944Z 14006KT M02/M10 A3004 RMK A01 T10161097  RH  054%=      5-min Rain = 0
KPD3 130945Z 14007KT M02/M10 A3004 RMK A01 T10151098  RH  053%=      5-min Rain = 0
KPD3 130946Z 14007KT M02/M10 A3004 RMK A01 T10151098  RH  053%=      5-min Rain = 0
KPD3 130947Z 15007KT M01/M10 A3004 RMK A01 T10141097  RH  053%=      5-min Rain = 0
KPD3 130948Z 15006KT M01/M10 A3004 RMK A01 T10131097  RH  053%=      5-min Rain = 0
KPD3 130949Z 14007KT M01/M10 A3004 RMK A01 T10131097  RH  053%=      5-min Rain = 0
KPD3 130950Z 14007KT M02/M10 A3004 RMK A01 T10151097  RH  053%=      5-min Rain = 0
KPD3 130951Z 14007KT M02/M10 A3004 RMK A01 T10171099  RH  054%=      5-min Rain = 0
KPD3 130952Z 14007KT M02/M10 A3004 RMK A01 T10171098  RH  054%=      5-min Rain = 0
KPD3 130953Z 14007KT M02/M10 A3003 RMK A01 T10171098  RH  054%=      5-min Rain = 0
KPD3 130954Z 14007KT M02/M10 A3003 RMK A01 T10161097  RH  054%=      5-min Rain = 0
KPD3 130955Z 14008KT M02/M10 A3003 RMK A01 T10161097  RH  054%=      5-min Rain = 0
KPD3 130956Z 14007KT M02/M10 A3003 RMK A01 T10161098  RH  054%=      5-min Rain = 0
KPD3 130957Z 14008KT M02/M10 A3003 RMK A01 T10161098  RH  054%=      5-min Rain = 0
KPD3 130958Z 14008KT M02/M10 A3003 RMK A01 T10171098  RH  054%=      5-min Rain = 0
KPD3 130959Z 14007KT M02/M10 A3003 RMK A01 T10181098  RH  054%=      5-min Rain = 0
KPD3 131000Z 15007KT M02/M10 A3003 RMK A01 T10191098  RH  055%=      5-min Rain = 0
KPD3 131001Z 15006KT M02/M10 A3003 RMK A01 T10191098  RH  055%=      5-min Rain = 0
KPD3 131002Z 16006KT M02/M10 A3003 RMK A01 T10201098  RH  055%=      5-min Rain = 0
KPD3 131003Z 16005KT M02/M10 A3003 RMK A01 T10201098  RH  055%=      5-min Rain = 0
KPD3 131004Z 16005KT M02/M10 A3003 RMK A01 T10211099  RH  055%=      5-min Rain = 0
KPD3 131005Z 15005KT M02/M10 A3003 RMK A01 T10191098  RH  055%=      5-min Rain = 0
KPD3 131006Z 14004KT M02/M10 A3002 RMK A01 T10191098  RH  054%=      5-min Rain = 0
KPD3 131007Z 15005KT M02/M10 A3002 RMK A01 T10191099  RH  054%=      5-min Rain = 0
KPD3 131008Z 14005KT M02/M10 A3002 RMK A01 T10211100  RH  055%=      5-min Rain = 0
KPD3 131009Z 14005KT M02/M10 A3002 RMK A01 T10221100  RH  055%=      5-min Rain = 0
KPD3 131010Z 14004KT M02/M10 A3002 RMK A01 T10221100  RH  055%=      5-min Rain = 0
KPD3 131011Z 14005KT M02/M10 A3002 RMK A01 T10211099  RH  055%=      5-min Rain = 0
KPD3 131012Z 14005KT M02/M10 A3002 RMK A01 T10201099  RH  055%=      5-min Rain = 0
KPD3 131013Z 15005KT M02/M10 A3002 RMK A01 T10181099  RH  054%=      5-min Rain = 0
KPD3 131014Z 15005KT M02/M10 A3002 RMK A01 T10181100  RH  054%=      5-min Rain = 0
KPD3 131015Z 15004KT M02/M10 A3002 RMK A01 T10181100  RH  054%=      5-min Rain = 0
KPD3 131016Z 15004KT M02/M10 A3002 RMK A01 T10181100  RH  054%=      5-min Rain = 0
KPD3 131017Z 14005KT M02/M10 A3002 RMK A01 T10161099  RH  053%=      5-min Rain = 0
KPD3 131018Z 13005KT M01/M10 A3002 RMK A01 T10141099  RH  053%=      5-min Rain = 0
KPD3 131019Z 12004KT M01/M10 A3002 RMK A01 T10121099  RH  052%=      5-min Rain = 0
KPD3 131020Z 12003KT M01/M10 A3002 RMK A01 T10121099  RH  052%=      5-min Rain = 0
KPD3 131021Z 11004KT M01/M10 A3002 RMK A01 T10121099  RH  051%=      5-min Rain = 0
KPD3 131022Z 11004KT M02/M10 A3002 RMK A01 T10151101  RH  052%=      5-min Rain = 0
KPD3 131023Z 12004KT M02/M10 A3002 RMK A01 T10161100  RH  053%=      5-min Rain = 0
KPD3 131024Z 12004KT M01/M10 A3002 RMK A01 T10141099  RH  053%=      5-min Rain = 0
KPD3 131025Z 11004KT M01/M10 A3002 RMK A01 T10131099  RH  052%=      5-min Rain = 0
KPD3 131026Z 12006KT M02/M10 A3001 RMK A01 T10151099  RH  053%=      5-min Rain = 0
KPD3 131027Z 14006KT M02/M10 A3001 RMK A01 T10181099  RH  054%=      5-min Rain = 0
KPD3 131028Z 12006KT M02/M10 A3001 RMK A01 T10171095  RH  055%=      5-min Rain = 0
KPD3 131029Z 14007KT M01/M09 A3001 RMK A01 T10111092  RH  054%=      5-min Rain = 0
KPD3 131030Z 12005KT M01/M09 A3001 RMK A01 T10051091  RH  052%=      5-min Rain = 0
KPD3 131031Z 15006KT M00/M09 A3001 RMK A01 T10041093  RH  051%=      5-min Rain = 0
KPD3 131032Z 13007KT M01/M10 A3001 RMK A01 T10071095  RH  051%=      5-min Rain = 0
KPD3 131033Z 15004KT M01/M10 A3001 RMK A01 T10101096  RH  052%=      5-min Rain = 0
KPD3 131034Z 17005KT M01/M10 A3001 RMK A01 T10091095  RH  052%=      5-min Rain = 0
KPD3 131035Z 14004KT M01/M09 A3001 RMK A01 T10081093  RH  052%=      5-min Rain = 0
KPD3 131036Z 15002KT M01/M09 A3001 RMK A01 T10081094  RH  052%=      5-min Rain = 0
KPD3 131037Z 16003KT M01/M10 A3001 RMK A01 T10101095  RH  052%=      5-min Rain = 0
KPD3 131038Z 14004KT M01/M10 A3001 RMK A01 T10111096  RH  053%=      5-min Rain = 0
KPD3 131039Z 15002KT M01/M10 A3001 RMK A01 T10101095  RH  053%=      5-min Rain = 0
KPD3 131040Z 18002KT M01/M10 A3001 RMK A01 T10101095  RH  052%=      5-min Rain = 0
KPD3 131041Z 19003KT M01/M10 A3001 RMK A01 T10091095  RH  052%=      5-min Rain = 0
KPD3 131042Z 17001KT M01/M09 A3001 RMK A01 T10071094  RH  052%=      5-min Rain = 0
KPD3 131043Z 23002KT M01/M09 A3001 RMK A01 T10071094  RH  052%=      5-min Rain = 0
KPD3 131044Z 20003KT M01/M10 A3001 RMK A01 T10071095  RH  051%=      5-min Rain = 0
KPD3 131045Z 20003KT M01/M10 A3001 RMK A01 T10071095  RH  051%=      5-min Rain = 0
KPD3 131046Z 15003KT M01/M10 A3001 RMK A01 T10061095  RH  051%=      5-min Rain = 0
KPD3 131047Z 16002KT M01/M10 A3001 RMK A01 T10081095  RH  052%=      5-min Rain = 0
KPD3 131048Z 18002KT M01/M10 A3001 RMK A01 T10091095  RH  052%=      5-min Rain = 0
KPD3 131049Z 19003KT M01/M09 A3001 RMK A01 T10091094  RH  052%=      5-min Rain = 0
KPD3 131050Z 19004KT M01/M09 A30 RMK A01 T10091094  RH  052%=      5-min Rain = 0
KPD3 131051Z 17003KT M01/M09 A30 RMK A01 T10091094  RH  053%=      5-min Rain = 0
KPD3 131052Z 17003KT M01/M09 A30 RMK A01 T10091093  RH  053%=      5-min Rain = 0
KPD3 131053Z 18003KT M01/M09 A30 RMK A01 T10091094  RH  053%=      5-min Rain = 0
KPD3 131054Z 16003KT M01/M09 A30 RMK A01 T10081093  RH  052%=      5-min Rain = 0
KPD3 131055Z 13003KT M01/M09 A30 RMK A01 T10081092  RH  053%=      5-min Rain = 0
KPD3 131056Z 14003KT M01/M09 A30 RMK A01 T10061092  RH  052%=      5-min Rain = 0
KPD3 131057Z 14002KT M01/M09 A30 RMK A01 T10061091  RH  052%=      5-min Rain = 0
KPD3 131058Z 15001KT M01/M09 A30 RMK A01 T10061091  RH  052%=      5-min Rain = 0
KPD3 131059Z 16001KT M01/M09 A30 RMK A01 T10061091  RH  052%=      5-min Rain = 0
KPD3 131100Z 18001KT M01/M09 A30 RMK A01 T10061092  RH  052%=      5-min Rain = 0
KPD3 131101Z 16001KT M01/M09 A30 RMK A01 T10061092  RH  052%=      5-min Rain = 0
KPD3 131102Z 15002KT M01/M09 A30 RMK A01 T10061092  RH  052%=      5-min Rain = 0
KPD3 131103Z 14002KT M01/M09 A3001 RMK A01 T10061092  RH  052%=      5-min Rain = 0
KPD3 131104Z 15003KT M01/M09 A3001 RMK A01 T10061092  RH  052%=      5-min Rain = 0
KPD3 131105Z 14005KT M01/M09 A3001 RMK A01 T10081094  RH  052%=      5-min Rain = 0
KPD3 131106Z 16004KT M01/M10 A3001 RMK A01 T10111095  RH  053%=      5-min Rain = 0
KPD3 131107Z 20003KT M01/M09 A3001 RMK A01 T10131094  RH  054%=      5-min Rain = 0
KPD3 131108Z 16003KT M02/M09 A3001 RMK A01 T10151094  RH  055%=      5-min Rain = 0
KPD3 131109Z 15005KT M02/M09 A3001 RMK A01 T10161093  RH  056%=      5-min Rain = 0
KPD3 131110Z 15006KT M02/M09 A3001 RMK A01 T10161091  RH  057%=      5-min Rain = 0
KPD3 131111Z 16006KT M02/M09 A3001 RMK A01 T10171089  RH  058%=      5-min Rain = 0
KPD3 131112Z 16008KT M02/M09 A3001 RMK A01 T10171089  RH  058%=      5-min Rain = 0
KPD3 131113Z 16008KT M02/M09 A3001 RMK A01 T10171088  RH  058%=      5-min Rain = 0
KPD3 131114Z 16007KT M02/M09 A3001 RMK A01 T10151087  RH  058%=      5-min Rain = 0
KPD3 131115Z 17007KT M01/M09 A3001 RMK A01 T10141087  RH  057%=      5-min Rain = 0
KPD3 131116Z 17008KT M01/M09 A3001 RMK A01 T10141087  RH  057%=      5-min Rain = 0
KPD3 131117Z 17008KT M01/M09 A30 RMK A01 T10141088  RH  057%=      5-min Rain = 0
KPD3 131118Z 16009KT M01/M09 A30 RMK A01 T10121087  RH  057%=      5-min Rain = 0
KPD3 131119Z 17009KT M01/M09 A30 RMK A01 T10111087  RH  057%=      5-min Rain = 0
KPD3 131120Z 17009KT M01/M09 A30 RMK A01 T10101087  RH  056%=      5-min Rain = 0
KPD3 131121Z 17010KT M01/M09 A30 RMK A01 T10101087  RH  056%=      5-min Rain = 0
KPD3 131122Z 17009KT M01/M09 A30 RMK A01 T10091087  RH  055%=      5-min Rain = 0
KPD3 131123Z 17009KT M01/M09 A30 RMK A01 T10081087  RH  055%=      5-min Rain = 0
KPD3 131124Z 17008KT M01/M09 A30 RMK A01 T10081087  RH  055%=      5-min Rain = 0
KPD3 131125Z 17007KT M01/M09 A30 RMK A01 T10081088  RH  055%=      5-min Rain = 0
KPD3 131126Z 17008KT M01/M09 A30 RMK A01 T10101089  RH  055%=      5-min Rain = 0
KPD3 131127Z 17008KT M01/M09 A30 RMK A01 T10131090  RH  055%=      5-min Rain = 0
KPD3 131128Z 16007KT M01/M09 A30 RMK A01 T10141090  RH  056%=      5-min Rain = 0
KPD3 131129Z 16007KT M02/M09 A30 RMK A01 T10161091  RH  057%=      5-min Rain = 0
KPD3 131130Z 16006KT M02/M09 A30 RMK A01 T10191092  RH  057%=      5-min Rain = 0
KPD3 131131Z 16006KT M02/M09 A30 RMK A01 T10211092  RH  058%=      5-min Rain = 0
KPD3 131132Z 16006KT M02/M09 A30 RMK A01 T10231093  RH  059%=      5-min Rain = 0
KPD3 131133Z 15006KT M02/M09 A30 RMK A01 T10241093  RH  059%=      5-min Rain = 0
KPD3 131134Z 15007KT M03/M09 A30 RMK A01 T10251092  RH  060%=      5-min Rain = 0
KPD3 131135Z 15007KT M03/M09 A30 RMK A01 T10261093  RH  060%=      5-min Rain = 0
KPD3 131136Z 15007KT M03/M09 A30 RMK A01 T10291094  RH  061%=      5-min Rain = 0
KPD3 131137Z 15007KT M03/M09 A30 RMK A01 T10301093  RH  062%=      5-min Rain = 0
KPD3 131138Z 15007KT M03/M09 A30 RMK A01 T10301092  RH  063%=      5-min Rain = 0
KPD3 131139Z 15007KT M03/M09 A30 RMK A01 T10291090  RH  063%=      5-min Rain = 0
KPD3 131140Z 15006KT M03/M09 A30 RMK A01 T10291090  RH  063%=      5-min Rain = 0
KPD3 131141Z 14005KT M03/M09 A30 RMK A01 T10291090  RH  063%=      5-min Rain = 0
KPD3 131142Z 13003KT M03/M09 A30 RMK A01 T10291090  RH  063%=      5-min Rain = 0
KPD3 131143Z 10001KT M03/M09 A30 RMK A01 T10291090  RH  063%=      5-min Rain = 0
KPD3 131144Z 02002KT M03/M09 A30 RMK A01 T10291090  RH  063%=      5-min Rain = 0
KPD3 131145Z 03002KT M03/M09 A30 RMK A01 T10281088  RH  063%=      5-min Rain = 0
KPD3 131146Z 03002KT M03/M09 A30 RMK A01 T10261089  RH  062%=      5-min Rain = 0
KPD3 131147Z 08002KT M03/M09 A2999 RMK A01 T10261089  RH  062%=      5-min Rain = 0
KPD3 131148Z 12002KT M03/M09 A2999 RMK A01 T10261089  RH  062%=      5-min Rain = 0
KPD3 131149Z 14003KT M03/M09 A2999 RMK A01 T10251089  RH  061%=      5-min Rain = 0
KPD3 131150Z 12002KT M02/M09 A2999 RMK A01 T10221088  RH  061%=      5-min Rain = 0
KPD3 131151Z 19002KT M02/M09 A2999 RMK A01 T10211088  RH  060%=      5-min Rain = 0
KPD3 131152Z 19004KT M02/M09 A2999 RMK A01 T10191087  RH  060%=      5-min Rain = 0
KPD3 131153Z 22004KT M02/M09 A2999 RMK A01 T10171086  RH  059%=      5-min Rain = 0
KPD3 131154Z 24004KT M02/M09 A2999 RMK A01 T10161086  RH  059%=      5-min Rain = 0
KPD3 131155Z 25008KT M01/M08 A2999 RMK A01 T10141084  RH  059%=      5-min Rain = 0
KPD3 131156Z 25006KT M01/M08 A2999 RMK A01 T10071078  RH  059%=      5-min Rain = 0
KPD3 131157Z 24007KT M00/M08 A2999 RMK A01 T10021077  RH  057%=      5-min Rain = 0
KPD3 131158Z 23008KT 00/M08 A2999 RMK A01 T00011078  RH  055%=      5-min Rain = 0
KPD3 131159Z 22006KT 00/M08 A2999 RMK A01 T00031079  RH  054%=      5-min Rain = 0
KPD3 131200Z 22007KT 00/M08 A2999 RMK A01 T00041080  RH  053%=      5-min Rain = 0
KPD3 131201Z 22006KT 00/M08 A2999 RMK A01 T00041080  RH  053%=      5-min Rain = 0
KPD3 131202Z 22005KT 00/M08 A2999 RMK A01 T00031081  RH  053%=      5-min Rain = 0
KPD3 131203Z 22007KT 00/M08 A2999 RMK A01 T00031081  RH  053%=      5-min Rain = 0
KPD3 131204Z 22010KT 00/M08 A2999 RMK A01 T00031080  RH  053%=      5-min Rain = 0
KPD3 131205Z 22008KT 00/M08 A2999 RMK A01 T00041080  RH  053%=      5-min Rain = 0
KPD3 131206Z 22010G15KT 00/M08 A2999 RMK A01 T00041080  RH  053%=      5-min Rain = 0
KPD3 131207Z 22012KT 01/M08 A2999 RMK A01 T00051079  RH  053%=      5-min Rain = 0
KPD3 131208Z 22012KT 01/M08 A2999 RMK A01 T00061079  RH  053%=      5-min Rain = 0
KPD3 131209Z 22013KT 01/M08 A2999 RMK A01 T00071079  RH  052%=      5-min Rain = 0
KPD3 131210Z 22010KT 01/M08 A2999 RMK A01 T00071079  RH  052%=      5-min Rain = 0
KPD3 131211Z 22008G13KT 01/M08 A2999 RMK A01 T00071079  RH  052%=      5-min Rain = 0
KPD3 131212Z 22011KT 01/M08 A2999 RMK A01 T00061080  RH  052%=      5-min Rain = 0
KPD3 131213Z 22011KT 01/M08 A2999 RMK A01 T00061080  RH  053%=      5-min Rain = 0
KPD3 131214Z 22011KT 01/M08 A2999 RMK A01 T00061080  RH  052%=      5-min Rain = 0
KPD3 131215Z 21010KT 01/M08 A2999 RMK A01 T00061081  RH  052%=      5-min Rain = 0
KPD3 131216Z 22009KT 01/M08 A2999 RMK A01 T00061081  RH  052%=      5-min Rain = 0
KPD3 131217Z 21009KT 01/M08 A2999 RMK A01 T00051081  RH  052%=      5-min Rain = 0
KPD3 131218Z 22010KT 00/M08 A2999 RMK A01 T00041081  RH  053%=      5-min Rain = 0
KPD3 131219Z 21010KT 00/M08 A2999 RMK A01 T00041081  RH  053%=      5-min Rain = 0
KPD3 131220Z 22009KT 00/M08 A2999 RMK A01 T00041081  RH  053%=      5-min Rain = 0
KPD3 131221Z 22008KT 00/M08 A2999 RMK A01 T00031081  RH  053%=      5-min Rain = 0
KPD3 131222Z 22010KT 00/M08 A2999 RMK A01 T00021082  RH  053%=      5-min Rain = 0
KPD3 131223Z 22010KT 00/M08 A2999 RMK A01 T00021081  RH  054%=      5-min Rain = 0
KPD3 131224Z 22009KT 00/M08 A2999 RMK A01 T00021081  RH  054%=      5-min Rain = 0
KPD3 131225Z 22011KT 00/M08 A2999 RMK A01 T00011081  RH  054%=      5-min Rain = 0
KPD3 131226Z 22011KT 00/M08 A2999 RMK A01 T00011080  RH  054%=      5-min Rain = 0
KPD3 131227Z 22011KT 00/M08 A2999 RMK A01 T00021080  RH  054%=      5-min Rain = 0
KPD3 131228Z 22013KT 00/M08 A2999 RMK A01 T00021080  RH  054%=      5-min Rain = 0
KPD3 131229Z 22013KT 00/M08 A2999 RMK A01 T00021080  RH  054%=      5-min Rain = 0
KPD3 131230Z 23014KT 00/M08 A2998 RMK A01 T00021080  RH  054%=      5-min Rain = 0
KPD3 131231Z 23014KT 00/M08 A2998 RMK A01 T00041079  RH  054%=      5-min Rain = 0
KPD3 131232Z 22014G20KT 00/M08 A2998 RMK A01 T00041079  RH  054%=      5-min Rain = 0
KPD3 131233Z 23016KT 01/M08 A2998 RMK A01 T00051079  RH  053%=      5-min Rain = 0
KPD3 131234Z 22015KT 01/M08 A2998 RMK A01 T00061079  RH  053%=      5-min Rain = 0
KPD3 131235Z 23016KT 01/M08 A2998 RMK A01 T00071079  RH  053%=      5-min Rain = 0
KPD3 131236Z 23016G21KT 01/M08 A2998 RMK A01 T00071079  RH  053%=      5-min Rain = 0
KPD3 131237Z 23017KT 01/M08 A2998 RMK A01 T00071079  RH  053%=      5-min Rain = 0
KPD3 131238Z 23015KT 01/M08 A2998 RMK A01 T00071078  RH  053%=      5-min Rain = 0
KPD3 131239Z 23017KT 01/M08 A2998 RMK A01 T00071078  RH  053%=      5-min Rain = 0
KPD3 131240Z 22018G24KT 01/M08 A2998 RMK A01 T00071078  RH  053%=      5-min Rain = 0
KPD3 131241Z 23020G25KT 01/M08 A2998 RMK A01 T00071079  RH  053%=      5-min Rain = 0
KPD3 131242Z 22017KT 01/M08 A2998 RMK A01 T00081078  RH  052%=      5-min Rain = 0
KPD3 131243Z 22017G22KT 01/M08 A2998 RMK A01 T00081079  RH  052%=      5-min Rain = 0
KPD3 131244Z 23017KT 01/M08 A2998 RMK A01 T00071079  RH  053%=      5-min Rain = 0
KPD3 131245Z 22018KT 01/M08 A2998 RMK A01 T00071079  RH  053%=      5-min Rain = 0
KPD3 131246Z 23019KT 01/M08 A2998 RMK A01 T00071079  RH  052%=      5-min Rain = 0
KPD3 131247Z 23018KT 01/M08 A2998 RMK A01 T00081079  RH  052%=      5-min Rain = 0
KPD3 131248Z 22017KT 01/M08 A2998 RMK A01 T00071079  RH  052%=      5-min Rain = 0
KPD3 131249Z 22016KT 01/M08 A2998 RMK A01 T00071079  RH  053%=      5-min Rain = 0
KPD3 131250Z 22017KT 01/M08 A2998 RMK A01 T00061079  RH  053%=      5-min Rain = 0
KPD3 131251Z 23015KT 01/M08 A2998 RMK A01 T00061079  RH  053%=      5-min Rain = 0
KPD3 131252Z 23015KT 01/M08 A2998 RMK A01 T00051079  RH  053%=      5-min Rain = 0
KPD3 131253Z 23017KT 01/M08 A2998 RMK A01 T00051080  RH  053%=      5-min Rain = 0
KPD3 131254Z 23016KT 01/M08 A2998 RMK A01 T00051080  RH  053%=      5-min Rain = 0
KPD3 131255Z 23016KT 01/M08 A2998 RMK A01 T00051079  RH  053%=      5-min Rain = 0
KPD3 131256Z 23018KT 01/M08 A2998 RMK A01 T00051079  RH  053%=      5-min Rain = 0
KPD3 131257Z 22016KT 01/M08 A2998 RMK A01 T00051079  RH  053%=      5-min Rain = 0
KPD3 131258Z 23015KT 01/M08 A2998 RMK A01 T00051079  RH  053%=      5-min Rain = 0
KPD3 131259Z 23014KT 00/M08 A2998 RMK A01 T00041079  RH  054%=      5-min Rain = 0
KPD3 131300Z 23014G19KT 00/M08 A2998 RMK A01 T00031079  RH  054%=      5-min Rain = 0
KPD3 131301Z 22014KT 00/M08 A2998 RMK A01 T00031079  RH  054%=      5-min Rain = 0
KPD3 131302Z 23013KT 00/M08 A2998 RMK A01 T00031079  RH  054%=      5-min Rain = 0
KPD3 131303Z 23018KT 00/M08 A2998 RMK A01 T00021079  RH  054%=      5-min Rain = 0
KPD3 131304Z 23015G20KT 00/M08 A2998 RMK A01 T00031078  RH  054%=      5-min Rain = 0
KPD3 131305Z 23016KT 00/M08 A2998 RMK A01 T00041078  RH  054%=      5-min Rain = 0
KPD3 131306Z 22016KT 00/M08 A2998 RMK A01 T00041078  RH  054%=      5-min Rain = 0
KPD3 131307Z 23016KT 00/M08 A2998 RMK A01 T00041078  RH  054%=      5-min Rain = 0
KPD3 131308Z 23014KT 01/M08 A2998 RMK A01 T00051078  RH  054%=      5-min Rain = 0
KPD3 131309Z 23018KT 00/M08 A2998 RMK A01 T00041078  RH  054%=      5-min Rain = 0
KPD3 131310Z 23017KT 01/M08 A2998 RMK A01 T00051078  RH  054%=      5-min Rain = 0
KPD3 131311Z 23016KT 01/M08 A2998 RMK A01 T00061078  RH  054%=      5-min Rain = 0
KPD3 131312Z 23017KT 01/M08 A2998 RMK A01 T00051078  RH  054%=      5-min Rain = 0
KPD3 131313Z 23016KT 01/M08 A2998 RMK A01 T00051078  RH  054%=      5-min Rain = 0
KPD3 131314Z 23015KT 00/M08 A2998 RMK A01 T00041078  RH  054%=      5-min Rain = 0
KPD3 131315Z 23017KT 00/M08 A2998 RMK A01 T00041078  RH  054%=      5-min Rain = 0
KPD3 131316Z 23018KT 00/M08 A2998 RMK A01 T00041077  RH  054%=      5-min Rain = 0
KPD3 131317Z 23016KT 01/M08 A2998 RMK A01 T00061077  RH  054%=      5-min Rain = 0
KPD3 131318Z 23016KT 01/M08 A2998 RMK A01 T00071077  RH  053%=      5-min Rain = 0
KPD3 131319Z 23015KT 01/M08 A2997 RMK A01 T00071077  RH  053%=      5-min Rain = 0
KPD3 131320Z 23016KT 01/M08 A2998 RMK A01 T00061078  RH  054%=      5-min Rain = 0
KPD3 131321Z 22013KT 01/M08 A2998 RMK A01 T00051078  RH  054%=      5-min Rain = 0
KPD3 131322Z 22014KT 01/M08 A2998 RMK A01 T00051078  RH  054%=      5-min Rain = 0
KPD3 131323Z 22012KT 00/M08 A2998 RMK A01 T00041077  RH  054%=      5-min Rain = 0
KPD3 131324Z 22013KT 00/M08 A2997 RMK A01 T00031077  RH  055%=      5-min Rain = 0
KPD3 131325Z 22012KT 00/M08 A2997 RMK A01 T00031077  RH  055%=      5-min Rain = 0
KPD3 131326Z 22012KT 00/M08 A2997 RMK A01 T00021078  RH  055%=      5-min Rain = 0
KPD3 131327Z 23013G18KT 00/M08 A2997 RMK A01 T00011078  RH  055%=      5-min Rain = 0
KPD3 131328Z 23013KT 00/M08 A2997 RMK A01 T00011077  RH  056%=      5-min Rain = 0
KPD3 131329Z 23012KT 00/M08 A2997 RMK A01 T00031076  RH  055%=      5-min Rain = 0
KPD3 131330Z 23012KT 00/M08 A2997 RMK A01 T00021077  RH  055%=      5-min Rain = 0
KPD3 131331Z 23014KT 00/M08 A2997 RMK A01 T00021077  RH  055%=      5-min Rain = 0
KPD3 131332Z 23012KT 00/M08 A2997 RMK A01 T00031076  RH  055%=      5-min Rain = 0
KPD3 131333Z 24012KT 00/M08 A2997 RMK A01 T00041075  RH  055%=      5-min Rain = 0
KPD3 131334Z 24011KT 00/M08 A2997 RMK A01 T00041076  RH  055%=      5-min Rain = 0
KPD3 131335Z 23010KT 00/M08 A2997 RMK A01 T00041075  RH  055%=      5-min Rain = 0
KPD3 131336Z 24010KT 01/M08 A2997 RMK A01 T00051075  RH  055%=      5-min Rain = 0
KPD3 131337Z 24010KT 01/M08 A2998 RMK A01 T00051075  RH  055%=      5-min Rain = 0
KPD3 131338Z 24011KT 01/M07 A2998 RMK A01 T00061074  RH  055%=      5-min Rain = 0
KPD3 131339Z 24009KT 01/M07 A2998 RMK A01 T00071074  RH  055%=      5-min Rain = 0
KPD3 131340Z 24009KT 01/M07 A2998 RMK A01 T00071074  RH  055%=      5-min Rain = 0
KPD3 131341Z 24008KT 01/M07 A2998 RMK A01 T00071074  RH  055%=      5-min Rain = 0
KPD3 131342Z 23008KT 01/M07 A2998 RMK A01 T00071074  RH  055%=      5-min Rain = 0
KPD3 131343Z 23008KT 01/M07 A2998 RMK A01 T00071074  RH  055%=      5-min Rain = 0
KPD3 131344Z 23007KT 01/M07 A2998 RMK A01 T00071074  RH  055%=      5-min Rain = 0
KPD3 131345Z 22007KT 01/M07 A2998 RMK A01 T00071073  RH  055%=      5-min Rain = 0
KPD3 131346Z 22007KT 01/M07 A2998 RMK A01 T00061074  RH  055%=      5-min Rain = 0
KPD3 131347Z 22008KT 01/M07 A2998 RMK A01 T00061074  RH  055%=      5-min Rain = 0
KPD3 131348Z 21007KT 01/M07 A2998 RMK A01 T00061074  RH  055%=      5-min Rain = 0
KPD3 131349Z 22007KT 01/M07 A2997 RMK A01 T00071073  RH  055%=      5-min Rain = 0
KPD3 131350Z 22009KT 01/M07 A2997 RMK A01 T00071074  RH  055%=      5-min Rain = 0
KPD3 131351Z 21008KT 01/M07 A2997 RMK A01 T00081074  RH  055%=      5-min Rain = 0
KPD3 131352Z 21008KT 01/M07 A2997 RMK A01 T00091073  RH  054%=      5-min Rain = 0
KPD3 131353Z 21008KT 01/M07 A2998 RMK A01 T00081073  RH  054%=      5-min Rain = 0
KPD3 131354Z 20007KT 01/M07 A2998 RMK A01 T00081074  RH  054%=      5-min Rain = 0
KPD3 131355Z 20008KT 01/M07 A2997 RMK A01 T00091073  RH  054%=      5-min Rain = 0
KPD3 131356Z 20008KT 01/M07 A2997 RMK A01 T00091073  RH  054%=      5-min Rain = 0
KPD3 131357Z 20009KT 01/M07 A2997 RMK A01 T00091073  RH  054%=      5-min Rain = 0
KPD3 131358Z 20008KT 01/M07 A2997 RMK A01 T00101072  RH  054%=      5-min Rain = 0
KPD3 131359Z 20007KT 01/M07 A2998 RMK A01 T00111072  RH  054%=      5-min Rain = 0
KPD3 131400Z 20008KT 01/M07 A2998 RMK A01 T00111072  RH  054%=      5-min Rain = 0
KPD3 131401Z 20007KT 01/M07 A2998 RMK A01 T00121072  RH  054%=      5-min Rain = 0
KPD3 131402Z 20008KT 01/M07 A2998 RMK A01 T00131071  RH  054%=      5-min Rain = 0
KPD3 131403Z 20007KT 01/M07 A2998 RMK A01 T00131071  RH  053%=      5-min Rain = 0
KPD3 131404Z 20007KT 01/M07 A2998 RMK A01 T00141071  RH  053%=      5-min Rain = 0
KPD3 131405Z 21009KT 01/M07 A2997 RMK A01 T00141070  RH  053%=      5-min Rain = 0
KPD3 131406Z 21009KT 01/M07 A2997 RMK A01 T00141071  RH  053%=      5-min Rain = 0
KPD3 131407Z 21009KT 02/M07 A2997 RMK A01 T00151071  RH  053%=      5-min Rain = 0
KPD3 131408Z 21009KT 02/M07 A2997 RMK A01 T00161070  RH  053%=      5-min Rain = 0
KPD3 131409Z 20009KT 02/M07 A2997 RMK A01 T00171069  RH  053%=      5-min Rain = 0
KPD3 131410Z 21010KT 02/M07 A2997 RMK A01 T00191068  RH  053%=      5-min Rain = 0
KPD3 131411Z 21010KT 02/M07 A2997 RMK A01 T00201068  RH  052%=      5-min Rain = 0
KPD3 131412Z 21012KT 02/M07 A2997 RMK A01 T00211068  RH  052%=      5-min Rain = 0
KPD3 131413Z 22011KT 02/M07 A2997 RMK A01 T00231068  RH  051%=      5-min Rain = 0
KPD3 131414Z 21010KT 02/M07 A2997 RMK A01 T00231068  RH  051%=      5-min Rain = 0
KPD3 131415Z 21009KT 02/M07 A2997 RMK A01 T00241068  RH  051%=      5-min Rain = 0
KPD3 131416Z 22011KT 02/M07 A2997 RMK A01 T00241068  RH  051%=      5-min Rain = 0
KPD3 131417Z 21010KT 02/M07 A2997 RMK A01 T00241068  RH  051%=      5-min Rain = 0
KPD3 131418Z 21009KT 03/M07 A2997 RMK A01 T00251068  RH  050%=      5-min Rain = 0
KPD3 131419Z 21009KT 03/M07 A2997 RMK A01 T00251068  RH  050%=      5-min Rain = 0
KPD3 131420Z 22010KT 03/M07 A2997 RMK A01 T00261068  RH  050%=      5-min Rain = 0
KPD3 131421Z 21009KT 03/M07 A2997 RMK A01 T00251069  RH  050%=      5-min Rain = 0
KPD3 131422Z 21009KT 03/M07 A2997 RMK A01 T00261068  RH  050%=      5-min Rain = 0
KPD3 131423Z 22007KT 03/M07 A2998 RMK A01 T00261068  RH  050%=      5-min Rain = 0
KPD3 131424Z 21009KT 03/M07 A2998 RMK A01 T00271067  RH  050%=      5-min Rain = 0
KPD3 131425Z 21007KT 03/M07 A2998 RMK A01 T00271068  RH  050%=      5-min Rain = 0
KPD3 131426Z 21008KT 03/M07 A2998 RMK A01 T00271067  RH  050%=      5-min Rain = 0
KPD3 131427Z 21008KT 03/M07 A2998 RMK A01 T00281067  RH  050%=      5-min Rain = 0
KPD3 131428Z 22008KT 03/M07 A2998 RMK A01 T00281068  RH  049%=      5-min Rain = 0
KPD3 131429Z 22007KT 03/M07 A2998 RMK A01 T00281067  RH  049%=      5-min Rain = 0
KPD3 131430Z 22007KT 03/M07 A2998 RMK A01 T00291066  RH  050%=      5-min Rain = 0
KPD3 131431Z 22006KT 03/M07 A2998 RMK A01 T00301065  RH  050%=      5-min Rain = 0
KPD3 131432Z 21006KT 03/M07 A2998 RMK A01 T00301066  RH  049%=      5-min Rain = 0
KPD3 131433Z 22006KT 03/M07 A2998 RMK A01 T00311066  RH  049%=      5-min Rain = 0
KPD3 131434Z 22006KT 03/M07 A2998 RMK A01 T00311066  RH  049%=      5-min Rain = 0
KPD3 131435Z 21005KT 03/M07 A2998 RMK A01 T00311066  RH  049%=      5-min Rain = 0
KPD3 131436Z 23006KT 03/M07 A2998 RMK A01 T00321065  RH  049%=      5-min Rain = 0
KPD3 131437Z 22005KT 03/M07 A2999 RMK A01 T00331065  RH  049%=      5-min Rain = 0
KPD3 131438Z 22005KT 03/M06 A2999 RMK A01 T00341064  RH  049%=      5-min Rain = 0
KPD3 131439Z 23006KT 04/M06 A2999 RMK A01 T00351064  RH  048%=      5-min Rain = 0
KPD3 131440Z 23006KT 04/M06 A2999 RMK A01 T00371063  RH  048%=      5-min Rain = 0
KPD3 131441Z 24007KT 04/M06 A2998 RMK A01 T00371064  RH  048%=      5-min Rain = 0
KPD3 131442Z 23009KT 04/M06 A2998 RMK A01 T00391062  RH  048%=      5-min Rain = 0
KPD3 131443Z 23009KT 04/M06 A2998 RMK A01 T00401062  RH  047%=      5-min Rain = 0
KPD3 131444Z 23007KT 04/M06 A2998 RMK A01 T00411062  RH  047%=      5-min Rain = 0
KPD3 131445Z 23008KT 04/M06 A2998 RMK A01 T00421062  RH  047%=      5-min Rain = 0
KPD3 131446Z 23008KT 04/M06 A2998 RMK A01 T00421062  RH  047%=      5-min Rain = 0
KPD3 131447Z 23008KT 04/M06 A2998 RMK A01 T00421062  RH  047%=      5-min Rain = 0
KPD3 131448Z 23007KT 04/M06 A2998 RMK A01 T00431063  RH  046%=      5-min Rain = 0
KPD3 131449Z 23009KT 04/M06 A2998 RMK A01 T00431061  RH  047%=      5-min Rain = 0
KPD3 131450Z 23007KT 04/M06 A2998 RMK A01 T00441062  RH  046%=      5-min Rain = 0
KPD3 131451Z 21006KT 04/M06 A2998 RMK A01 T00441062  RH  046%=      5-min Rain = 0
KPD3 131452Z 22006KT 05/M06 A2998 RMK A01 T00451062  RH  046%=      5-min Rain = 0
KPD3 131453Z 23006KT 05/M06 A2998 RMK A01 T00461061  RH  046%=      5-min Rain = 0
KPD3 131454Z 23006KT 05/M06 A2998 RMK A01 T00471060  RH  046%=      5-min Rain = 0
KPD3 131455Z 22007KT 05/M06 A2998 RMK A01 T00471061  RH  045%=      5-min Rain = 0
KPD3 131456Z 22007KT 05/M06 A2998 RMK A01 T00481061  RH  045%=      5-min Rain = 0
KPD3 131457Z 23006KT 05/M06 A2998 RMK A01 T00481061  RH  045%=      5-min Rain = 0
KPD3 131458Z 24007KT 05/M06 A2998 RMK A01 T00491060  RH  045%=      5-min Rain = 0
KPD3 131459Z 23006KT 05/M06 A2998 RMK A01 T00491061  RH  045%=      5-min Rain = 0
KPD3 131500Z 23007KT 05/M06 A2998 RMK A01 T00491061  RH  045%=      5-min Rain = 0
KPD3 131501Z 23007KT 05/M06 A2998 RMK A01 T00501060  RH  045%=      5-min Rain = 0
KPD3 131502Z 22006KT 05/M06 A2998 RMK A01 T00511060  RH  045%=      5-min Rain = 0
KPD3 131503Z 21009KT 05/M06 A2998 RMK A01 T00511059  RH  045%=      5-min Rain = 0
KPD3 131504Z 22008KT 05/M06 A2998 RMK A01 T00521059  RH  044%=      5-min Rain = 0
KPD3 131505Z 22006KT 05/M06 A2998 RMK A01 T00531059  RH  044%=      5-min Rain = 0
KPD3 131506Z 22007KT 05/M06 A2998 RMK A01 T00531059  RH  044%=      5-min Rain = 0
KPD3 131507Z 22008KT 05/M06 A2998 RMK A01 T00541059  RH  044%=      5-min Rain = 0
KPD3 131508Z 23006KT 05/M06 A2998 RMK A01 T00541060  RH  044%=      5-min Rain = 0
KPD3 131509Z 23006KT 05/M06 A2998 RMK A01 T00531060  RH  044%=      5-min Rain = 0
KPD3 131510Z 23007KT 05/M06 A2998 RMK A01 T00541059  RH  044%=      5-min Rain = 0
KPD3 131511Z 22009KT 06/M06 A2998 RMK A01 T00551057  RH  044%=      5-min Rain = 0
KPD3 131512Z 22008KT 06/M06 A2998 RMK A01 T00571057  RH  044%=      5-min Rain = 0
KPD3 131513Z 22009KT 06/M06 A2998 RMK A01 T00581056  RH  044%=      5-min Rain = 0
KPD3 131514Z 22008KT 06/M06 A2998 RMK A01 T00591057  RH  043%=      5-min Rain = 0
KPD3 131515Z 22007KT 06/M06 A2998 RMK A01 T00591059  RH  043%=      5-min Rain = 0
KPD3 131516Z 24006KT 06/M06 A2998 RMK A01 T00581059  RH  043%=      5-min Rain = 0
KPD3 131517Z 24006KT 06/M06 A2998 RMK A01 T00581058  RH  043%=      5-min Rain = 0
KPD3 131518Z 22007KT 06/M06 A2998 RMK A01 T00601056  RH  043%=      5-min Rain = 0
KPD3 131519Z 22007KT 06/M06 A2998 RMK A01 T00611056  RH  043%=      5-min Rain = 0
KPD3 131520Z 23008KT 06/M06 A2998 RMK A01 T00621056  RH  043%=      5-min Rain = 0
KPD3 131521Z 22008KT 06/M06 A2998 RMK A01 T00631056  RH  042%=      5-min Rain = 0
KPD3 131522Z 23008KT 06/M06 A2998 RMK A01 T00631055  RH  042%=      5-min Rain = 0
KPD3 131523Z 23007KT 06/M05 A2998 RMK A01 T00641054  RH  043%=      5-min Rain = 0
KPD3 131524Z 23009KT 07/M06 A2998 RMK A01 T00651055  RH  042%=      5-min Rain = 0
KPD3 131525Z 23008KT 07/M06 A2998 RMK A01 T00651056  RH  042%=      5-min Rain = 0
KPD3 131526Z 23008KT 07/M06 A2998 RMK A01 T00651055  RH  042%=      5-min Rain = 0
KPD3 131527Z 23009KT 07/M06 A2998 RMK A01 T00651055  RH  042%=      5-min Rain = 0
KPD3 131528Z 21008KT 07/M05 A2998 RMK A01 T00661054  RH  042%=      5-min Rain = 0
KPD3 131529Z 22009KT 07/M05 A2998 RMK A01 T00681053  RH  042%=      5-min Rain = 0
KPD3 131530Z 22009KT 07/M05 A2998 RMK A01 T00691053  RH  041%=      5-min Rain = 0
KPD3 131531Z 21009KT 07/M05 A2998 RMK A01 T00691054  RH  041%=      5-min Rain = 0
KPD3 131532Z 22010KT 07/M05 A2998 RMK A01 T00701052  RH  042%=      5-min Rain = 0
KPD3 131533Z 21010KT 07/M05 A2998 RMK A01 T00701054  RH  041%=      5-min Rain = 0
KPD3 131534Z 21011KT 07/M06 A2998 RMK A01 T00691055  RH  041%=      5-min Rain = 0
KPD3 131535Z 22010KT 07/M05 A2998 RMK A01 T00691054  RH  041%=      5-min Rain = 0
KPD3 131536Z 23009KT 07/M05 A2998 RMK A01 T00701053  RH  041%=      5-min Rain = 0
KPD3 131537Z 22009KT 07/M05 A2998 RMK A01 T00701053  RH  041%=      5-min Rain = 0
KPD3 131538Z 22009KT 07/M05 A2998 RMK A01 T00721053  RH  041%=      5-min Rain = 0
KPD3 131539Z 21011KT 07/M05 A2998 RMK A01 T00721053  RH  041%=      5-min Rain = 0
KPD3 131540Z 23010KT 07/M05 A2998 RMK A01 T00721052  RH  041%=      5-min Rain = 0
KPD3 131541Z 23009KT 07/M05 A2998 RMK A01 T00731051  RH  041%=      5-min Rain = 0
KPD3 131542Z 24009KT 07/M05 A2998 RMK A01 T00741051  RH  040%=      5-min Rain = 0
KPD3 131543Z 24008KT 07/M05 A2998 RMK A01 T00741053  RH  040%=      5-min Rain = 0
KPD3 131544Z 23008KT 07/M05 A2998 RMK A01 T00741052  RH  040%=      5-min Rain = 0
KPD3 131545Z 23012KT 07/M05 A2998 RMK A01 T00741052  RH  041%=      5-min Rain = 0
KPD3 131546Z 23011KT 08/M05 A2998 RMK A01 T00751052  RH  040%=      5-min Rain = 0
KPD3 131547Z 24009KT 08/M05 A2998 RMK A01 T00751051  RH  040%=      5-min Rain = 0
KPD3 131548Z 24012KT 08/M05 A2998 RMK A01 T00751051  RH  040%=      5-min Rain = 0
KPD3 131549Z 24011KT 08/M05 A2998 RMK A01 T00761052  RH  040%=      5-min Rain = 0
KPD3 131550Z 24008KT 08/M05 A2998 RMK A01 T00751052  RH  040%=      5-min Rain = 0
KPD3 131551Z 25008KT 08/M05 A2998 RMK A01 T00771048  RH  041%=      5-min Rain = 0
KPD3 131552Z 23008KT 08/M05 A2998 RMK A01 T00801048  RH  040%=      5-min Rain = 0
KPD3 131553Z 22008KT 08/M05 A2998 RMK A01 T00811049  RH  039%=      5-min Rain = 0
KPD3 131554Z 23010KT 08/M05 A2998 RMK A01 T00821047  RH  040%=      5-min Rain = 0
KPD3 131555Z 24010KT 08/M05 A2998 RMK A01 T00831049  RH  039%=      5-min Rain = 0
KPD3 131556Z 23012KT 08/M05 A2998 RMK A01 T00831048  RH  039%=      5-min Rain = 0
KPD3 131557Z 23011KT 08/M05 A2998 RMK A01 T00831049  RH  039%=      5-min Rain = 0
KPD3 131558Z 24011KT 08/M05 A2998 RMK A01 T00831048  RH  039%=      5-min Rain = 0
KPD3 131559Z 23010KT 08/M05 A2997 RMK A01 T00831048  RH  039%=      5-min Rain = 0
KPD3 131600Z 23010KT 08/M05 A2997 RMK A01 T00841046  RH  039%=      5-min Rain = 0
KPD3 131601Z 23010KT 09/M05 A2997 RMK A01 T00861048  RH  039%=      5-min Rain = 0
KPD3 131602Z 22011KT 09/M05 A2997 RMK A01 T00851048  RH  039%=      5-min Rain = 0
KPD3 131603Z 23009KT 09/M05 A2997 RMK A01 T00851046  RH  039%=      5-min Rain = 0
KPD3 131604Z 23012KT 09/M04 A2997 RMK A01 T00891044  RH  039%=      5-min Rain = 0
KPD3 131605Z 22011KT 09/M05 A2997 RMK A01 T00901046  RH  038%=      5-min Rain = 0
KPD3 131606Z 22012KT 09/M05 A2997 RMK A01 T00891046  RH  038%=      5-min Rain = 0
KPD3 131607Z 23010KT 09/M05 A2997 RMK A01 T00901045  RH  038%=      5-min Rain = 0
KPD3 131608Z 23011KT 09/M05 A2997 RMK A01 T00911046  RH  038%=      5-min Rain = 0
KPD3 131609Z 22008KT 09/M05 A2997 RMK A01 T00901046  RH  038%=      5-min Rain = 0
KPD3 131610Z 23009KT 09/M05 A2997 RMK A01 T00911045  RH  038%=      5-min Rain = 0
KPD3 131611Z 21008KT 09/M05 A2997 RMK A01 T00911046  RH  038%=      5-min Rain = 0
KPD3 131612Z 21009KT 09/M05 A2997 RMK A01 T00911045  RH  038%=      5-min Rain = 0
KPD3 131613Z 20009KT 09/M05 A2997 RMK A01 T00921046  RH  037%=      5-min Rain = 0
KPD3 131614Z 21008KT 09/M05 A2997 RMK A01 T00921046  RH  038%=      5-min Rain = 0
KPD3 131615Z 21007KT 09/M04 A2997 RMK A01 T00931043  RH  038%=      5-min Rain = 0
KPD3 131616Z 19008KT 10/M05 A2997 RMK A01 T00951045  RH  037%=      5-min Rain = 0
KPD3 131617Z 20010KT 09/M05 A2997 RMK A01 T00941045  RH  037%=      5-min Rain = 0
KPD3 131618Z 20009KT 10/M04 A2997 RMK A01 T00951043  RH  037%=      5-min Rain = 0
KPD3 131619Z 20007KT 10/M04 A2997 RMK A01 T00961044  RH  037%=      5-min Rain = 0
KPD3 131620Z 22009KT 10/M04 A2996 RMK A01 T00971043  RH  037%=      5-min Rain = 0
KPD3 131621Z 22011KT 10/M04 A2996 RMK A01 T00981043  RH  037%=      5-min Rain = 0
KPD3 131622Z 21009KT 10/M05 A2996 RMK A01 T00961045  RH  037%=      5-min Rain = 0
KPD3 131623Z 22010KT 09/M05 A2996 RMK A01 T00941046  RH  037%=      5-min Rain = 0
KPD3 131624Z 22009KT 09/M05 A2996 RMK A01 T00941045  RH  037%=      5-min Rain = 0
KPD3 131625Z 21010KT 10/M04 A2996 RMK A01 T00951044  RH  037%=      5-min Rain = 0
KPD3 131626Z 21007KT 10/M05 A2996 RMK A01 T00951045  RH  037%=      5-min Rain = 0
KPD3 131627Z 24007KT 10/M04 A2996 RMK A01 T00961043  RH  037%=      5-min Rain = 0
KPD3 131628Z 24008KT 10/M04 A2996 RMK A01 T00981042  RH  037%=      5-min Rain = 0
KPD3 131629Z 22009KT 10/M04 A2996 RMK A01 T01001041  RH  037%=      5-min Rain = 0
KPD3 131630Z 22008KT 10/M04 A2996 RMK A01 T01011041  RH  037%=      5-min Rain = 0
KPD3 131631Z 23008KT 10/M04 A2996 RMK A01 T01021042  RH  036%=      5-min Rain = 0
KPD3 131632Z 21008KT 10/M04 A2996 RMK A01 T01031041  RH  036%=      5-min Rain = 0
KPD3 131633Z 20007KT 10/M04 A2996 RMK A01 T01041041  RH  036%=      5-min Rain = 0
KPD3 131634Z 19009KT 10/M04 A2996 RMK A01 T01041041  RH  036%=      5-min Rain = 0
KPD3 131635Z 20006KT 10/M04 A2996 RMK A01 T01041042  RH  036%=      5-min Rain = 0
KPD3 131636Z 19008KT 10/M04 A2996 RMK A01 T01041041  RH  036%=      5-min Rain = 0
KPD3 131637Z 20009KT 10/M04 A2996 RMK A01 T01041041  RH  036%=      5-min Rain = 0
KPD3 131638Z 19010KT 11/M04 A2996 RMK A01 T01051038  RH  036%=      5-min Rain = 0
KPD3 131639Z 20007KT 11/M04 A2996 RMK A01 T01081038  RH  036%=      5-min Rain = 0
KPD3 131640Z 20008KT 11/M03 A2996 RMK A01 T01121034  RH  036%=      5-min Rain = 0
KPD3 131641Z 21009KT 11/M04 A2996 RMK A01 T01131038  RH  034%=      5-min Rain = 0
KPD3 131642Z 20008KT 11/M04 A2996 RMK A01 T01111040  RH  034%=      5-min Rain = 0
KPD3 131643Z 20010KT 11/M04 A2996 RMK A01 T01101038  RH  035%=      5-min Rain = 0
KPD3 131644Z 21009KT 11/M04 A2995 RMK A01 T01111038  RH  035%=      5-min Rain = 0
KPD3 131645Z 20009KT 11/M04 A2995 RMK A01 T01111039  RH  035%=      5-min Rain = 0
KPD3 131646Z 19012KT 11/M04 A2995 RMK A01 T01111038  RH  035%=      5-min Rain = 0
KPD3 131647Z 19012KT 11/M04 A2995 RMK A01 T01121038  RH  035%=      5-min Rain = 0
KPD3 131648Z 19012KT 11/M04 A2995 RMK A01 T01101040  RH  035%=      5-min Rain = 0
KPD3 131649Z 20012KT 11/M04 A2995 RMK A01 T01091040  RH  035%=      5-min Rain = 0
KPD3 131650Z 20012KT 11/M04 A2995 RMK A01 T01101039  RH  035%=      5-min Rain = 0
KPD3 131651Z 19011KT 11/M04 A2995 RMK A01 T01111038  RH  035%=      5-min Rain = 0
KPD3 131652Z 21013KT 11/M04 A2995 RMK A01 T01141036  RH  035%=      5-min Rain = 0
KPD3 131653Z 22012KT 12/M04 A2995 RMK A01 T01151038  RH  034%=      5-min Rain = 0
KPD3 131654Z 21011KT 11/M04 A2995 RMK A01 T01141039  RH  034%=      5-min Rain = 0
KPD3 131655Z 21012KT 11/M04 A2994 RMK A01 T01131038  RH  034%=      5-min Rain = 0
KPD3 131656Z 20011KT 12/M04 A2994 RMK A01 T01151038  RH  034%=      5-min Rain = 0
KPD3 131657Z 20011KT 12/M04 A2994 RMK A01 T01161036  RH  034%=      5-min Rain = 0
KPD3 131658Z 21013KT 12/M04 A2994 RMK A01 T01181036  RH  034%=      5-min Rain = 0
KPD3 131659Z 21014KT 12/M04 A2994 RMK A01 T01181037  RH  033%=      5-min Rain = 0
KPD3 131700Z 20011KT 12/M04 A2994 RMK A01 T01161039  RH  033%=      5-min Rain = 0
KPD3 131701Z 21012KT 12/M04 A2994 RMK A01 T01161036  RH  034%=      5-min Rain = 0
KPD3 131702Z 19012KT 12/M04 A2994 RMK A01 T01181037  RH  034%=      5-min Rain = 0
KPD3 131703Z 20012KT 12/M04 A2994 RMK A01 T01181037  RH  034%=      5-min Rain = 0
KPD3 131704Z 20008KT 12/M04 A2994 RMK A01 T01181037  RH  034%=      5-min Rain = 0
KPD3 131705Z 18009G14KT 12/M04 A2994 RMK A01 T01191036  RH  034%=      5-min Rain = 0
KPD3 131706Z 19013KT 12/M04 A2994 RMK A01 T01211037  RH  033%=      5-min Rain = 0
KPD3 131707Z 19011KT 12/M04 A2994 RMK A01 T01191039  RH  033%=      5-min Rain = 0
KPD3 131708Z 18010KT 12/M04 A2994 RMK A01 T01191038  RH  033%=      5-min Rain = 0
KPD3 131709Z 19011KT 12/M04 A2994 RMK A01 T01201037  RH  033%=      5-min Rain = 0
KPD3 131710Z 20012KT 12/M04 A2994 RMK A01 T01211037  RH  033%=      5-min Rain = 0
KPD3 131711Z 20012KT 12/M04 A2994 RMK A01 T01221036  RH  033%=      5-min Rain = 0
KPD3 131712Z 18012KT 12/M04 A2994 RMK A01 T01231037  RH  032%=      5-min Rain = 0
KPD3 131713Z 19014KT 12/M04 A2994 RMK A01 T01221037  RH  033%=      5-min Rain = 0
KPD3 131714Z 19015KT 12/M04 A2994 RMK A01 T01231037  RH  033%=      5-min Rain = 0
KPD3 131715Z 20012KT 12/M04 A2994 RMK A01 T01241036  RH  033%=      5-min Rain = 0
KPD3 131716Z 19012KT 13/M04 A2994 RMK A01 T01261036  RH  032%=      5-min Rain = 0
KPD3 131717Z 19008KT 13/M04 A2994 RMK A01 T01261037  RH  032%=      5-min Rain = 0
KPD3 131718Z 21008KT 13/M04 A2994 RMK A01 T01251037  RH  032%=      5-min Rain = 0
KPD3 131719Z 22012KT 13/M04 A2994 RMK A01 T01261035  RH  032%=      5-min Rain = 0
KPD3 131720Z 23010KT 13/M04 A2994 RMK A01 T01271037  RH  032%=      5-min Rain = 0
KPD3 131721Z 22008KT 13/M04 A2994 RMK A01 T01281036  RH  032%=      5-min Rain = 0
KPD3 131722Z 21010KT 13/M04 A2994 RMK A01 T01281036  RH  032%=      5-min Rain = 0
KPD3 131723Z 20006KT 13/M04 A2994 RMK A01 T01291035  RH  032%=      5-min Rain = 0
KPD3 131724Z 23011KT 13/M03 A2994 RMK A01 T01331033  RH  032%=      5-min Rain = 0
KPD3 131725Z 24009KT 13/M04 A2994 RMK A01 T01331035  RH  031%=      5-min Rain = 0
KPD3 131726Z 22008KT 13/M04 A2994 RMK A01 T01321035  RH  031%=      5-min Rain = 0
KPD3 131727Z 22009KT 13/M04 A2994 RMK A01 T01321035  RH  031%=      5-min Rain = 0
KPD3 131728Z 18009KT 13/M03 A2994 RMK A01 T01341032  RH  031%=      5-min Rain = 0
KPD3 131729Z 19010KT 14/M03 A2994 RMK A01 T01351033  RH  031%=      5-min Rain = 0
KPD3 131730Z 20012KT 14/M03 A2994 RMK A01 T01381031  RH  031%=      5-min Rain = 0
KPD3 131731Z 21010KT 14/M03 A2994 RMK A01 T01391032  RH  030%=      5-min Rain = 0
KPD3 131732Z 23008KT 14/M04 A2994 RMK A01 T01381036  RH  030%=      5-min Rain = 0
KPD3 131733Z 22008KT 14/M03 A2994 RMK A01 T01361034  RH  031%=      5-min Rain = 0
KPD3 131734Z 19008KT 14/M03 A2994 RMK A01 T01371033  RH  031%=      5-min Rain = 0
KPD3 131735Z 20011KT 14/M03 A2994 RMK A01 T01381033  RH  030%=      5-min Rain = 0
KPD3 131736Z 19010KT 14/M04 A2994 RMK A01 T01371035  RH  030%=      5-min Rain = 0
KPD3 131737Z 20008KT 14/M03 A2994 RMK A01 T01361033  RH  031%=      5-min Rain = 0
KPD3 131738Z 19010KT 14/M03 A2994 RMK A01 T01371033  RH  031%=      5-min Rain = 0
KPD3 131739Z 18010KT 14/M03 A2994 RMK A01 T01371034  RH  030%=      5-min Rain = 0
KPD3 131740Z 18008KT 14/M04 A2994 RMK A01 T01361035  RH  030%=      5-min Rain = 0
KPD3 131741Z 20008KT 14/M04 A2994 RMK A01 T01351035  RH  031%=      5-min Rain = 0
KPD3 131742Z 20007KT 13/M04 A2994 RMK A01 T01341036  RH  030%=      5-min Rain = 0
KPD3 131743Z 20005KT 13/M04 A2994 RMK A01 T01341035  RH  031%=      5-min Rain = 0
KPD3 131744Z 20007KT 14/M03 A2994 RMK A01 T01351032  RH  031%=      5-min Rain = 0
KPD3 131745Z 20012KT 14/M03 A2994 RMK A01 T01381033  RH  030%=      5-min Rain = 0
KPD3 131746Z 21008KT 14/M03 A2993 RMK A01 T01391033  RH  030%=      5-min Rain = 0
KPD3 131747Z 22007KT 14/M03 A2993 RMK A01 T01401032  RH  030%=      5-min Rain = 0
KPD3 131748Z 22006KT 14/M03 A2993 RMK A01 T01411034  RH  030%=      5-min Rain = 0
KPD3 131749Z 21006KT 14/M04 A2993 RMK A01 T01391035  RH  030%=      5-min Rain = 0
KPD3 131750Z 20003KT 14/M03 A2993 RMK A01 T01391032  RH  030%=      5-min Rain = 0
KPD3 131751Z 23004KT 14/M03 A2993 RMK A01 T01411032  RH  030%=      5-min Rain = 0
KPD3 131752Z 26003KT 14/M03 A2993 RMK A01 T01431033  RH  029%=      5-min Rain = 0
KPD3 131753Z 26006KT 14/M03 A2993 RMK A01 T01431034  RH  029%=      5-min Rain = 0
KPD3 131754Z 25007KT 14/M03 A2993 RMK A01 T01431033  RH  029%=      5-min Rain = 0
KPD3 131755Z 22007G12KT 14/M03 A2992 RMK A01 T01441034  RH  029%=      5-min Rain = 0
KPD3 131756Z 22012KT 15/M03 A2992 RMK A01 T01451033  RH  029%=      5-min Rain = 0
KPD3 131757Z 23009KT 15/M03 A2992 RMK A01 T01471034  RH  029%=      5-min Rain = 0
KPD3 131758Z 20010KT 15/M03 A2992 RMK A01 T01471034  RH  028%=      5-min Rain = 0
KPD3 131759Z 22008KT 15/M03 A2992 RMK A01 T01471034  RH  029%=      5-min Rain = 0
KPD3 131800Z 23008KT 15/M03 A2992 RMK A01 T01471034  RH  028%=      5-min Rain = 0
KPD3 131801Z 22010KT 15/M03 A2992 RMK A01 T01491032  RH  028%=      5-min Rain = 0
KPD3 131802Z 20009KT 15/M03 A2992 RMK A01 T01511032  RH  028%=      5-min Rain = 0
KPD3 131803Z 20010KT 15/M03 A2992 RMK A01 T01521033  RH  028%=      5-min Rain = 0
KPD3 131804Z 22006KT 15/M03 A2992 RMK A01 T01501034  RH  028%=      5-min Rain = 0
KPD3 131805Z 26007KT 15/M03 A2992 RMK A01 T01491034  RH  028%=      5-min Rain = 0
KPD3 131806Z 26010KT 15/M03 A2992 RMK A01 T01501033  RH  028%=      5-min Rain = 0
KPD3 131807Z 24008KT 15/M03 A2992 RMK A01 T01511034  RH  028%=      5-min Rain = 0
KPD3 131808Z 23009KT 15/M03 A2992 RMK A01 T01531032  RH  028%=      5-min Rain = 0
KPD3 131809Z 21009KT 15/M03 A2992 RMK A01 T01531034  RH  027%=      5-min Rain = 0
KPD3 131810Z 19009KT 15/M03 A2992 RMK A01 T01511034  RH  028%=      5-min Rain = 0
KPD3 131811Z 20006KT 15/M03 A2992 RMK A01 T01521032  RH  028%=      5-min Rain = 0
KPD3 131812Z 21008KT 15/M03 A2991 RMK A01 T01531033  RH  028%=      5-min Rain = 0
KPD3 131813Z 21008KT 15/M03 A2991 RMK A01 T01531033  RH  028%=      5-min Rain = 0
KPD3 131814Z 22010KT 15/M03 A2991 RMK A01 T01541032  RH  028%=      5-min Rain = 0
KPD3 131815Z 21010KT 16/M03 A2991 RMK A01 T01551033  RH  027%=      5-min Rain = 0
KPD3 131816Z 22009KT 16/M03 A2991 RMK A01 T01551033  RH  027%=      5-min Rain = 0
KPD3 131817Z 23007KT 15/M03 A2991 RMK A01 T01541033  RH  027%=      5-min Rain = 0
KPD3 131818Z 23011KT 15/M03 A2991 RMK A01 T01541032  RH  028%=      5-min Rain = 0
KPD3 131819Z 23008KT 16/M03 A2991 RMK A01 T01561031  RH  027%=      5-min Rain = 0
KPD3 131820Z 21006KT 16/M03 A2991 RMK A01 T01571033  RH  027%=      5-min Rain = 0
KPD3 131821Z 23009G14KT 16/M03 A2991 RMK A01 T01581031  RH  027%=      5-min Rain = 0
KPD3 131822Z 25006KT 16/M03 A2991 RMK A01 T01611031  RH  027%=      5-min Rain = 0
KPD3 131823Z 23008KT 16/M03 A2991 RMK A01 T01621030  RH  027%=      5-min Rain = 0
KPD3 131824Z 23011KT 16/M03 A2991 RMK A01 T01631031  RH  026%=      5-min Rain = 0
KPD3 131825Z 20009KT 16/M03 A2991 RMK A01 T01621031  RH  026%=      5-min Rain = 0
KPD3 131826Z 20009G14KT 16/M03 A2991 RMK A01 T01611032  RH  026%=      5-min Rain = 0
KPD3 131827Z 22012KT 16/M03 A2991 RMK A01 T01631031  RH  026%=      5-min Rain = 0
KPD3 131828Z 21007KT 16/M03 A299 RMK A01 T01641033  RH  026%=      5-min Rain = 0
KPD3 131829Z 21009KT 16/M03 A299 RMK A01 T01631031  RH  026%=      5-min Rain = 0
KPD3 131830Z 23010KT 16/M03 A299 RMK A01 T01641031  RH  026%=      5-min Rain = 0
KPD3 131831Z 23008KT 16/M03 A299 RMK A01 T01621034  RH  026%=      5-min Rain = 0
KPD3 131832Z 23007KT 16/M03 A299 RMK A01 T01611033  RH  026%=      5-min Rain = 0
KPD3 131833Z 20010KT 16/M03 A299 RMK A01 T01621030  RH  027%=      5-min Rain = 0
KPD3 131834Z 21009KT 17/M03 A299 RMK A01 T01651031  RH  026%=      5-min Rain = 0
KPD3 131835Z 23007KT 17/M03 A299 RMK A01 T01661031  RH  026%=      5-min Rain = 0
KPD3 131836Z 24012KT 17/M03 A299 RMK A01 T01661032  RH  025%=      5-min Rain = 0
KPD3 131837Z 23012KT 17/M03 A299 RMK A01 T01681031  RH  025%=      5-min Rain = 0
KPD3 131838Z 22011KT 17/M03 A299 RMK A01 T01681033  RH  025%=      5-min Rain = 0
KPD3 131839Z 22008KT 17/M03 A299 RMK A01 T01671034  RH  025%=      5-min Rain = 0
KPD3 131840Z 20008KT 17/M03 A299 RMK A01 T01671033  RH  025%=      5-min Rain = 0
KPD3 131841Z 22012KT 17/M03 A299 RMK A01 T01681032  RH  025%=      5-min Rain = 0
KPD3 131842Z 23011KT 17/M03 A299 RMK A01 T01691033  RH  025%=      5-min Rain = 0
KPD3 131843Z 24013KT 17/M03 A299 RMK A01 T01701033  RH  025%=      5-min Rain = 0
KPD3 131844Z 23011KT 17/M03 A299 RMK A01 T01701033  RH  025%=      5-min Rain = 0
KPD3 131845Z 24007KT 17/M03 A299 RMK A01 T01691034  RH  025%=      5-min Rain = 0
KPD3 131846Z 25007KT 17/M03 A299 RMK A01 T01681033  RH  025%=      5-min Rain = 0
KPD3 131847Z 24008KT 17/M03 A299 RMK A01 T01691033  RH  025%=      5-min Rain = 0
KPD3 131848Z 23007KT 17/M03 A2989 RMK A01 T01701033  RH  025%=      5-min Rain = 0
KPD3 131849Z 23011KT 17/M03 A2989 RMK A01 T01701033  RH  025%=      5-min Rain = 0
KPD3 131850Z 24007KT 17/M03 A2989 RMK A01 T01701033  RH  025%=      5-min Rain = 0
KPD3 131851Z 24006KT 17/M03 A2989 RMK A01 T01691033  RH  025%=      5-min Rain = 0
KPD3 131852Z 25009KT 17/M03 A2989 RMK A01 T01711032  RH  025%=      5-min Rain = 0
KPD3 131853Z 22009KT 17/M03 A2989 RMK A01 T01721033  RH  025%=      5-min Rain = 0
KPD3 131854Z 22008KT 17/M03 A2989 RMK A01 T01721032  RH  025%=      5-min Rain = 0
KPD3 131855Z 23010KT 17/M03 A2989 RMK A01 T01721033  RH  024%=      5-min Rain = 0
KPD3 131856Z 22012KT 17/M03 A2988 RMK A01 T01731033  RH  024%=      5-min Rain = 0
KPD3 131857Z 22011KT 17/M03 A2988 RMK A01 T01731033  RH  024%=      5-min Rain = 0
KPD3 131858Z 23010KT 17/M03 A2988 RMK A01 T01731032  RH  024%=      5-min Rain = 0
KPD3 131859Z 22009KT 17/M03 A2988 RMK A01 T01741032  RH  024%=      5-min Rain = 0
KPD3 131900Z 22008KT 17/M03 A2988 RMK A01 T01741033  RH  024%=      5-min Rain = 0
KPD3 131901Z 22006KT 17/M03 A2988 RMK A01 T01731032  RH  025%=      5-min Rain = 0
KPD3 131902Z 21005KT 17/M03 A2988 RMK A01 T01731033  RH  024%=      5-min Rain = 0
KPD3 131903Z 20005KT 17/M03 A2988 RMK A01 T01731033  RH  024%=      5-min Rain = 0
KPD3 131904Z 20006KT 17/M03 A2988 RMK A01 T01741030  RH  025%=      5-min Rain = 0
KPD3 131905Z 18007KT 18/M03 A2988 RMK A01 T01771031  RH  024%=      5-min Rain = 0
KPD3 131906Z 22004KT 18/M03 A2988 RMK A01 T01761034  RH  024%=      5-min Rain = 0
KPD3 131907Z 21005KT 18/M03 A2988 RMK A01 T01751033  RH  024%=      5-min Rain = 0
KPD3 131908Z 23005KT 18/M03 A2988 RMK A01 T01751032  RH  024%=      5-min Rain = 0
KPD3 131909Z 25006KT 18/M03 A2988 RMK A01 T01751033  RH  024%=      5-min Rain = 0
KPD3 131910Z 26008KT 18/M03 A2988 RMK A01 T01751034  RH  024%=      5-min Rain = 0
KPD3 131911Z 25007KT 17/M03 A2988 RMK A01 T01741034  RH  024%=      5-min Rain = 0
KPD3 131912Z 23007KT 17/M03 A2988 RMK A01 T01741033  RH  024%=      5-min Rain = 0
KPD3 131913Z 23010KT 18/M03 A2988 RMK A01 T01761030  RH  024%=      5-min Rain = 0
KPD3 131914Z 23008KT 18/M03 A2988 RMK A01 T01781030  RH  024%=      5-min Rain = 0
KPD3 131915Z 20009KT 18/M03 A2988 RMK A01 T01791030  RH  024%=      5-min Rain = 0
KPD3 131916Z 21009KT 18/M03 A2988 RMK A01 T01791031  RH  024%=      5-min Rain = 0
KPD3 131917Z 20006KT 18/M03 A2988 RMK A01 T01781030  RH  024%=      5-min Rain = 0
KPD3 131918Z 18006KT 18/M03 A2988 RMK A01 T01791030  RH  024%=      5-min Rain = 0
KPD3 131919Z 19008KT 18/M03 A2988 RMK A01 T01791029  RH  024%=      5-min Rain = 0
KPD3 131920Z 20006KT 18/M03 A2988 RMK A01 T01801031  RH  024%=      5-min Rain = 0
KPD3 131921Z 21006KT 18/M03 A2988 RMK A01 T01801029  RH  024%=      5-min Rain = 0
KPD3 131922Z 22007KT 18/M03 A2988 RMK A01 T01811030  RH  024%=      5-min Rain = 0
KPD3 131923Z 25008KT 18/M03 A2987 RMK A01 T01821030  RH  023%=      5-min Rain = 0
KPD3 131924Z 24006KT 18/M03 A2988 RMK A01 T01821030  RH  023%=      5-min Rain = 0
KPD3 131925Z 24004KT 18/M03 A2988 RMK A01 T01831032  RH  023%=      5-min Rain = 0
KPD3 131926Z 23002KT 18/M03 A2988 RMK A01 T01811034  RH  023%=      5-min Rain = 0
KPD3 131927Z 25003KT 18/M03 A2988 RMK A01 T01791033  RH  023%=      5-min Rain = 0
KPD3 131928Z 23008KT 18/M03 A2988 RMK A01 T01791031  RH  024%=      5-min Rain = 0
KPD3 131929Z 23006KT 18/M03 A2987 RMK A01 T01801031  RH  024%=      5-min Rain = 0
KPD3 131930Z 22004KT 18/M03 A2987 RMK A01 T01791032  RH  024%=      5-min Rain = 0
KPD3 131931Z 24003KT 18/M03 A2987 RMK A01 T01791032  RH  024%=      5-min Rain = 0
KPD3 131932Z 23007KT 18/M03 A2987 RMK A01 T01791031  RH  024%=      5-min Rain = 0
KPD3 131933Z 23005KT 18/M03 A2987 RMK A01 T01791032  RH  024%=      5-min Rain = 0
KPD3 131934Z 23004KT 18/M03 A2987 RMK A01 T01791032  RH  024%=      5-min Rain = 0
KPD3 131935Z 20005KT 18/M03 A2987 RMK A01 T01801029  RH  024%=      5-min Rain = 0
KPD3 131936Z 19007G12KT 18/M03 A2987 RMK A01 T01821029  RH  024%=      5-min Rain = 0
KPD3 131937Z 22009KT 18/M03 A2987 RMK A01 T01831030  RH  023%=      5-min Rain = 0
KPD3 131938Z 21006KT 18/M03 A2987 RMK A01 T01831031  RH  023%=      5-min Rain = 0
KPD3 131939Z 19004KT 18/M03 A2987 RMK A01 T01841028  RH  024%=      5-min Rain = 0
KPD3 131940Z 21003KT 19/M03 A2987 RMK A01 T01851028  RH  023%=      5-min Rain = 0
KPD3 131941Z 22006KT 19/M03 A2987 RMK A01 T01871028  RH  023%=      5-min Rain = 0
KPD3 131942Z 26007KT 19/M03 A2987 RMK A01 T01881029  RH  023%=      5-min Rain = 0
KPD3 131943Z 23006KT 19/M03 A2987 RMK A01 T01881030  RH  023%=      5-min Rain = 0
KPD3 131944Z 21006KT 19/M03 A2987 RMK A01 T01871031  RH  023%=      5-min Rain = 0
KPD3 131945Z 22005KT 19/M03 A2987 RMK A01 T01861030  RH  023%=      5-min Rain = 0
KPD3 131946Z 22005KT 19/M03 A2987 RMK A01 T01861029  RH  023%=      5-min Rain = 0
KPD3 131947Z 22002KT 19/M03 A2987 RMK A01 T01881031  RH  022%=      5-min Rain = 0
KPD3 131948Z 18001KT 19/M03 A2987 RMK A01 T01871033  RH  022%=      5-min Rain = 0
KPD3 131949Z 18001KT 19/M03 A2987 RMK A01 T01871029  RH  023%=      5-min Rain = 0
KPD3 131950Z 05001KT 19/M03 A2986 RMK A01 T01881030  RH  023%=      5-min Rain = 0
KPD3 131951Z 16002KT 19/M03 A2986 RMK A01 T01891029  RH  023%=      5-min Rain = 0
KPD3 131952Z 16005KT 19/M03 A2986 RMK A01 T01911028  RH  023%=      5-min Rain = 0
KPD3 131953Z 19007KT 19/M03 A2986 RMK A01 T01921027  RH  023%=      5-min Rain = 0
KPD3 131954Z 21005KT 19/M03 A2986 RMK A01 T01931025  RH  023%=      5-min Rain = 0
KPD3 131955Z 22005KT 19/M03 A2986 RMK A01 T01941028  RH  022%=      5-min Rain = 0
KPD3 131956Z 21006KT 19/M03 A2986 RMK A01 T01941028  RH  022%=      5-min Rain = 0
KPD3 131957Z 21006KT 19/M03 A2986 RMK A01 T01921030  RH  022%=      5-min Rain = 0
KPD3 131958Z 21008KT 19/M03 A2986 RMK A01 T01911029  RH  022%=      5-min Rain = 0
KPD3 131959Z 21005KT 19/M03 A2986 RMK A01 T01911028  RH  023%=      5-min Rain = 0
KPD3 132000Z 22002KT 19/M03 A2986 RMK A01 T01911032  RH  022%=      5-min Rain = 0
KPD3 132001Z 18003KT 19/M03 A2986 RMK A01 T01901031  RH  022%=      5-min Rain = 0
KPD3 132002Z 16003KT 19/M03 A2986 RMK A01 T01901030  RH  022%=      5-min Rain = 0
KPD3 132003Z 16003KT 19/M03 A2986 RMK A01 T01901031  RH  022%=      5-min Rain = 0
KPD3 132004Z 15003KT 19/M03 A2986 RMK A01 T01911031  RH  022%=      5-min Rain = 0
KPD3 132005Z 15004KT 19/M03 A2986 RMK A01 T01911030  RH  022%=      5-min Rain = 0
KPD3 132006Z 15005KT 19/M03 A2986 RMK A01 T01901031  RH  022%=      5-min Rain = 0
KPD3 132007Z 17002KT 19/M03 A2986 RMK A01 T01891032  RH  022%=      5-min Rain = 0
KPD3 132008Z 21004KT 19/M03 A2986 RMK A01 T01881030  RH  023%=      5-min Rain = 0
KPD3 132009Z 19004KT 19/M03 A2986 RMK A01 T01911029  RH  022%=      5-min Rain = 0
KPD3 132010Z 23003KT 19/M03 A2986 RMK A01 T01921031  RH  022%=      5-min Rain = 0
KPD3 132011Z 25006KT 19/M03 A2986 RMK A01 T01931030  RH  022%=      5-min Rain = 0
KPD3 132012Z 25004KT 19/M03 A2986 RMK A01 T01931031  RH  022%=      5-min Rain = 0
KPD3 132013Z 26003KT 19/M03 A2986 RMK A01 T01921033  RH  022%=      5-min Rain = 0
KPD3 132014Z 20003KT 19/M03 A2986 RMK A01 T01911031  RH  022%=      5-min Rain = 0
KPD3 132015Z 22004KT 19/M03 A2986 RMK A01 T01921030  RH  022%=      5-min Rain = 0
KPD3 132016Z 23005KT 19/M03 A2987 RMK A01 T01941030  RH  022%=      5-min Rain = 0
KPD3 132017Z 22003KT 19/M03 A2987 RMK A01 T01941031  RH  022%=      5-min Rain = 0
KPD3 132018Z 23003KT 20/M03 A2987 RMK A01 T01951030  RH  022%=      5-min Rain = 0
KPD3 132019Z 23002KT 20/M03 A2987 RMK A01 T01951032  RH  021%=      5-min Rain = 0
KPD3 132020Z 27001KT 20/M03 A2987 RMK A01 T01951032  RH  021%=      5-min Rain = 0
KPD3 132021Z 29005KT 19/M03 A2987 RMK A01 T01941031  RH  022%=      5-min Rain = 0
KPD3 132022Z 30003KT 19/M03 A2987 RMK A01 T01941033  RH  021%=      5-min Rain = 0
KPD3 132023Z 28000KT 19/M03 A2987 RMK A01 T01921034  RH  021%=      5-min Rain = 0
KPD3 132024Z 29001KT 19/M03 A2987 RMK A01 T01921032  RH  022%=      5-min Rain = 0
KPD3 132025Z 27002KT 19/M03 A2987 RMK A01 T01921034  RH  021%=      5-min Rain = 0
KPD3 132026Z 27002KT 19/M03 A2987 RMK A01 T01931032  RH  022%=      5-min Rain = 0
KPD3 132027Z 21002KT 19/M03 A2987 RMK A01 T01931033  RH  021%=      5-min Rain = 0
KPD3 132028Z 20003KT 19/M03 A2987 RMK A01 T01931033  RH  021%=      5-min Rain = 0
KPD3 132029Z 17002KT 19/M03 A2987 RMK A01 T01931034  RH  021%=      5-min Rain = 0
KPD3 132030Z 18002KT 19/M03 A2987 RMK A01 T01921034  RH  021%=      5-min Rain = 0
KPD3 132031Z 16001KT 19/M03 A2987 RMK A01 T01921033  RH  021%=      5-min Rain = 0
KPD3 132032Z 15002KT 19/M03 A2987 RMK A01 T01921032  RH  022%=      5-min Rain = 0
KPD3 132033Z 16003KT 19/M03 A2987 RMK A01 T01931030  RH  022%=      5-min Rain = 0
KPD3 132034Z 16002KT 19/M03 A2987 RMK A01 T01941029  RH  022%=      5-min Rain = 0
KPD3 132035Z 15001KT 20/M03 A2987 RMK A01 T01951030  RH  022%=      5-min Rain = 0
KPD3 132036Z 35001KT 20/M03 A2987 RMK A01 T01961029  RH  022%=      5-min Rain = 0
KPD3 132037Z 01002KT 20/M03 A2987 RMK A01 T01971031  RH  021%=      5-min Rain = 0
KPD3 132038Z 34004KT 20/M03 A2987 RMK A01 T01981034  RH  021%=      5-min Rain = 0
KPD3 132039Z 03002KT 20/M04 A2987 RMK A01 T01951036  RH  021%=      5-min Rain = 0
KPD3 132040Z 07002KT 19/M04 A2987 RMK A01 T01941035  RH  021%=      5-min Rain = 0
KPD3 132041Z 07002KT 19/M04 A2987 RMK A01 T01931035  RH  021%=      5-min Rain = 0
KPD3 132042Z 13000KT 19/M04 A2987 RMK A01 T01931036  RH  021%=      5-min Rain = 0
KPD3 132043Z 13000KT 19/M04 A2987 RMK A01 T01941035  RH  021%=      5-min Rain = 0
KPD3 132044Z 36002KT 20/M03 A2987 RMK A01 T01961033  RH  021%=      5-min Rain = 0
KPD3 132045Z 35003KT 20/M03 A2987 RMK A01 T01971033  RH  021%=      5-min Rain = 0
KPD3 132046Z 33003KT 20/M04 A2987 RMK A01 T01971035  RH  021%=      5-min Rain = 0
KPD3 132047Z 32002KT 20/M04 A2987 RMK A01 T01961036  RH  021%=      5-min Rain = 0
KPD3 132048Z 34000KT 20/M04 A2987 RMK A01 T01951036  RH  021%=      5-min Rain = 0
KPD3 132049Z 05000KT 20/M03 A2987 RMK A01 T01951033  RH  021%=      5-min Rain = 0
KPD3 132050Z 32001KT 20/M03 A2987 RMK A01 T01981033  RH  021%=      5-min Rain = 0
KPD3 132051Z 29002KT 20/M03 A2987 RMK A01 T01991033  RH  021%=      5-min Rain = 0
KPD3 132052Z 29001KT 20/M03 A2987 RMK A01 T01991033  RH  021%=      5-min Rain = 0
KPD3 132053Z 25002KT 20/M03 A2987 RMK A01 T02001033  RH  020%=      5-min Rain = 0
KPD3 132054Z 29002KT 20/M03 A2988 RMK A01 T02011032  RH  021%=      5-min Rain = 0
KPD3 132055Z 36001KT 20/M03 A2988 RMK A01 T02011033  RH  020%=      5-min Rain = 0
KPD3 132056Z 12003KT 20/M03 A2988 RMK A01 T02011033  RH  020%=      5-min Rain = 0
KPD3 132057Z 09004KT 20/M03 A2987 RMK A01 T02011032  RH  021%=      5-min Rain = 0
KPD3 132058Z 07006KT 20/M03 A2987 RMK A01 T02001030  RH  021%=      5-min Rain = 0
KPD3 132059Z 06007KT 20/M03 A2987 RMK A01 T02001031  RH  021%=      5-min Rain = 0
KPD3 132100Z 06007KT 20/M03 A2987 RMK A01 T01981033  RH  021%=      5-min Rain = 0
KPD3 132101Z 07005KT 20/M03 A2987 RMK A01 T01961033  RH  021%=      5-min Rain = 0
KPD3 132102Z 10004KT 20/M03 A2987 RMK A01 T01951034  RH  021%=      5-min Rain = 0
KPD3 132103Z 07002KT 20/M03 A2987 RMK A01 T01951034  RH  021%=      5-min Rain = 0
KPD3 132104Z 08002KT 19/M03 A2987 RMK A01 T01941034  RH  021%=      5-min Rain = 0
KPD3 132105Z 08003KT 20/M03 A2987 RMK A01 T01951033  RH  021%=      5-min Rain = 0
KPD3 132106Z 10007KT 20/M03 A2987 RMK A01 T01961031  RH  021%=      5-min Rain = 0
KPD3 132107Z 12006KT 20/M03 A2987 RMK A01 T01961031  RH  021%=      5-min Rain = 0
KPD3 132108Z 11005KT 20/M03 A2987 RMK A01 T01951032  RH  021%=      5-min Rain = 0
KPD3 132109Z 12006KT 19/M03 A2987 RMK A01 T01941030  RH  022%=      5-min Rain = 0
KPD3 132110Z 14004KT 19/M03 A2987 RMK A01 T01941031  RH  021%=      5-min Rain = 0
KPD3 132111Z 14003KT 19/M03 A2987 RMK A01 T01941031  RH  022%=      5-min Rain = 0
KPD3 132112Z 12002KT 19/M03 A2987 RMK A01 T01941032  RH  021%=      5-min Rain = 0
KPD3 132113Z 10003KT 20/M03 A2987 RMK A01 T01951032  RH  021%=      5-min Rain = 0
KPD3 132114Z 12003KT 20/M03 A2987 RMK A01 T01951032  RH  021%=      5-min Rain = 0
KPD3 132115Z 11004KT 20/M03 A2987 RMK A01 T01951030  RH  022%=      5-min Rain = 0
KPD3 132116Z 07003KT 20/M03 A2987 RMK A01 T01971030  RH  021%=      5-min Rain = 0
KPD3 132117Z 08005KT 20/M03 A2988 RMK A01 T01981031  RH  021%=      5-min Rain = 0
KPD3 132118Z 09006KT 20/M03 A2988 RMK A01 T01981031  RH  021%=      5-min Rain = 0
KPD3 132119Z 09005KT 20/M03 A2988 RMK A01 T01981031  RH  021%=      5-min Rain = 0
KPD3 132120Z 09004KT 20/M03 A2988 RMK A01 T01971031  RH  021%=      5-min Rain = 0
KPD3 132121Z 10004KT 20/M03 A2988 RMK A01 T01961031  RH  021%=      5-min Rain = 0
KPD3 132122Z 09005KT 20/M03 A2988 RMK A01 T01971030  RH  021%=      5-min Rain = 0
KPD3 132123Z 09005KT 20/M03 A2988 RMK A01 T01971031  RH  021%=      5-min Rain = 0
KPD3 132124Z 07006KT 20/M03 A2988 RMK A01 T01961031  RH  021%=      5-min Rain = 0
KPD3 132125Z 06007KT 20/M03 A2988 RMK A01 T01961032  RH  021%=      5-min Rain = 0
KPD3 132126Z 06006KT 20/M03 A2988 RMK A01 T01951033  RH  021%=      5-min Rain = 0
KPD3 132127Z 06007KT 19/M03 A2988 RMK A01 T01941033  RH  021%=      5-min Rain = 0
KPD3 132128Z 06006KT 19/M03 A2988 RMK A01 T01941032  RH  021%=      5-min Rain = 0
KPD3 132129Z 08006KT 19/M03 A2988 RMK A01 T01941034  RH  021%=      5-min Rain = 0
KPD3 132130Z 08006KT 19/M03 A2988 RMK A01 T01941033  RH  021%=      5-min Rain = 0
KPD3 132131Z 06007KT 19/M03 A2988 RMK A01 T01941032  RH  021%=      5-min Rain = 0
KPD3 132132Z 07007KT 20/M03 A2988 RMK A01 T01961032  RH  021%=      5-min Rain = 0
KPD3 132133Z 06006KT 20/M03 A2988 RMK A01 T01961033  RH  021%=      5-min Rain = 0
KPD3 132134Z 06007KT 20/M03 A2988 RMK A01 T01961033  RH  021%=      5-min Rain = 0
KPD3 132135Z 06007KT 20/M03 A2988 RMK A01 T01951032  RH  021%=      5-min Rain = 0
KPD3 132136Z 07006KT 20/M03 A2988 RMK A01 T01951034  RH  021%=      5-min Rain = 0
KPD3 132137Z 07005KT 20/M03 A2988 RMK A01 T01951033  RH  021%=      5-min Rain = 0
KPD3 132138Z 06006KT 20/M03 A2988 RMK A01 T01951034  RH  021%=      5-min Rain = 0
KPD3 132139Z 05005KT 20/M03 A2988 RMK A01 T01951034  RH  021%=      5-min Rain = 0
KPD3 132140Z 05005KT 19/M04 A2989 RMK A01 T01931035  RH  021%=      5-min Rain = 0
KPD3 132141Z 07006KT 19/M03 A2989 RMK A01 T01931034  RH  021%=      5-min Rain = 0
KPD3 132142Z 08006KT 19/M03 A2989 RMK A01 T01931034  RH  021%=      5-min Rain = 0
KPD3 132143Z 08004KT 20/M03 A2989 RMK A01 T01951033  RH  021%=      5-min Rain = 0
KPD3 132144Z 08005KT 20/M03 A2989 RMK A01 T01951033  RH  021%=      5-min Rain = 0
KPD3 132145Z 07006KT 20/M03 A2989 RMK A01 T01961033  RH  021%=      5-min Rain = 0
KPD3 132146Z 06007KT 20/M03 A2989 RMK A01 T01971034  RH  021%=      5-min Rain = 0
KPD3 132147Z 06005KT 20/M04 A2989 RMK A01 T01951035  RH  021%=      5-min Rain = 0
KPD3 132148Z 07006KT 19/M03 A2989 RMK A01 T01941034  RH  021%=      5-min Rain = 0
KPD3 132149Z 06006KT 20/M03 A2989 RMK A01 T01951034  RH  021%=      5-min Rain = 0
KPD3 132150Z 07006KT 20/M03 A2989 RMK A01 T01951033  RH  021%=      5-min Rain = 0
KPD3 132151Z 07004KT 20/M03 A2989 RMK A01 T01961034  RH  021%=      5-min Rain = 0
KPD3 132152Z 08003KT 20/M04 A2989 RMK A01 T01951035  RH  021%=      5-min Rain = 0
KPD3 132153Z 08004KT 19/M03 A2989 RMK A01 T01941033  RH  021%=      5-min Rain = 0
KPD3 132154Z 05005KT 20/M03 A2989 RMK A01 T01961032  RH  021%=      5-min Rain = 0
KPD3 132155Z 05005KT 20/M03 A2989 RMK A01 T01971034  RH  021%=      5-min Rain = 0
KPD3 132156Z 03003KT 20/M03 A2989 RMK A01 T01961034  RH  021%=      5-min Rain = 0
KPD3 132157Z 03004KT 20/M03 A2989 RMK A01 T01961034  RH  021%=      5-min Rain = 0
KPD3 132158Z 06004KT 20/M03 A2989 RMK A01 T01961034  RH  021%=      5-min Rain = 0
KPD3 132159Z 06004KT 20/M04 A2989 RMK A01 T01951035  RH  021%=      5-min Rain = 0
KPD3 132200Z 07007KT 20/M03 A2989 RMK A01 T01951034  RH  021%=      5-min Rain = 0
KPD3 132201Z 06007KT 20/M03 A2989 RMK A01 T01951033  RH  021%=      5-min Rain = 0
KPD3 132202Z 07007KT 20/M03 A2989 RMK A01 T01951034  RH  021%=      5-min Rain = 0
KPD3 132203Z 07006KT 20/M04 A2989 RMK A01 T01951035  RH  021%=      5-min Rain = 0
KPD3 132204Z 08005KT 19/M04 A2989 RMK A01 T01941035  RH  021%=      5-min Rain = 0
KPD3 132205Z 07005KT 19/M04 A2989 RMK A01 T01941035  RH  021%=      5-min Rain = 0
KPD3 132206Z 07005KT 19/M04 A2989 RMK A01 T01941035  RH  021%=      5-min Rain = 0
KPD3 132207Z 06004KT 19/M04 A2989 RMK A01 T01941035  RH  021%=      5-min Rain = 0
KPD3 132208Z 05004KT 19/M04 A2989 RMK A01 T01931035  RH  021%=      5-min Rain = 0
KPD3 132209Z 07004KT 19/M04 A2989 RMK A01 T01941036  RH  021%=      5-min Rain = 0
KPD3 132210Z 06007KT 19/M04 A2989 RMK A01 T01941036  RH  021%=      5-min Rain = 0
KPD3 132211Z 05007KT 19/M03 A299 RMK A01 T01941034  RH  021%=      5-min Rain = 0
KPD3 132212Z 04005KT 19/M03 A299 RMK A01 T01941034  RH  021%=      5-min Rain = 0
KPD3 132213Z 07006KT 19/M03 A299 RMK A01 T01941034  RH  021%=      5-min Rain = 0
KPD3 132214Z 09008KT 20/M03 A299 RMK A01 T01951034  RH  021%=      5-min Rain = 0
KPD3 132215Z 08008KT 19/M04 A299 RMK A01 T01941036  RH  021%=      5-min Rain = 0
KPD3 132216Z 08006KT 19/M04 A299 RMK A01 T01931036  RH  021%=      5-min Rain = 0
KPD3 132217Z 08005KT 19/M04 A299 RMK A01 T01921036  RH  021%=      5-min Rain = 0
KPD3 132218Z 08007KT 19/M04 A299 RMK A01 T01921035  RH  021%=      5-min Rain = 0
KPD3 132219Z 09005KT 19/M04 A299 RMK A01 T01921036  RH  021%=      5-min Rain = 0
KPD3 132220Z 09006KT 19/M04 A299 RMK A01 T01921036  RH  021%=      5-min Rain = 0
KPD3 132221Z 07005KT 19/M04 A299 RMK A01 T01911037  RH  021%=      5-min Rain = 0
KPD3 132222Z 07005KT 19/M04 A299 RMK A01 T01911036  RH  021%=      5-min Rain = 0
KPD3 132223Z 08006KT 19/M04 A299 RMK A01 T01911036  RH  021%=      5-min Rain = 0
KPD3 132224Z 07007KT 19/M04 A299 RMK A01 T01911036  RH  021%=      5-min Rain = 0
KPD3 132225Z 07008KT 19/M04 A299 RMK A01 T01921036  RH  021%=      5-min Rain = 0
KPD3 132226Z 07007KT 19/M04 A299 RMK A01 T01911036  RH  021%=      5-min Rain = 0
KPD3 132227Z 07007KT 19/M04 A299 RMK A01 T01911036  RH  021%=      5-min Rain = 0
KPD3 132228Z 07006KT 19/M04 A299 RMK A01 T01901036  RH  021%=      5-min Rain = 0
KPD3 132229Z 07006KT 19/M04 A299 RMK A01 T01901036  RH  021%=      5-min Rain = 0
KPD3 132230Z 07005KT 19/M04 A299 RMK A01 T01901037  RH  021%=      5-min Rain = 0
KPD3 132231Z 07006KT 19/M04 A299 RMK A01 T01901036  RH  021%=      5-min Rain = 0
KPD3 132232Z 07008KT 19/M04 A299 RMK A01 T01901035  RH  021%=      5-min Rain = 0
KPD3 132233Z 07009KT 19/M04 A2991 RMK A01 T01901035  RH  022%=      5-min Rain = 0
KPD3 132234Z 08007KT 19/M03 A2991 RMK A01 T01901033  RH  022%=      5-min Rain = 0
KPD3 132235Z 07007KT 19/M03 A2991 RMK A01 T01891033  RH  022%=      5-min Rain = 0
KPD3 132236Z 08007KT 19/M03 A2991 RMK A01 T01891033  RH  022%=      5-min Rain = 0
KPD3 132237Z 08006KT 19/M04 A2991 RMK A01 T01881035  RH  022%=      5-min Rain = 0
KPD3 132238Z 09007KT 19/M04 A2991 RMK A01 T01871035  RH  022%=      5-min Rain = 0
KPD3 132239Z 09007KT 19/M03 A2991 RMK A01 T01871034  RH  022%=      5-min Rain = 0
KPD3 132240Z 09008KT 19/M03 A2991 RMK A01 T01871033  RH  022%=      5-min Rain = 0
KPD3 132241Z 08008KT 19/M03 A2991 RMK A01 T01861034  RH  022%=      5-min Rain = 0
KPD3 132242Z 08007KT 19/M04 A2991 RMK A01 T01861035  RH  022%=      5-min Rain = 0
KPD3 132243Z 07006KT 19/M04 A2991 RMK A01 T01861035  RH  022%=      5-min Rain = 0
KPD3 132244Z 07006KT 19/M03 A2991 RMK A01 T01851034  RH  022%=      5-min Rain = 0
KPD3 132245Z 07007KT 19/M03 A2991 RMK A01 T01851034  RH  022%=      5-min Rain = 0
KPD3 132246Z 08007KT 19/M04 A2991 RMK A01 T01851035  RH  022%=      5-min Rain = 0
KPD3 132247Z 08007KT 19/M03 A2991 RMK A01 T01851034  RH  022%=      5-min Rain = 0
KPD3 132248Z 07007KT 18/M03 A2991 RMK A01 T01841034  RH  022%=      5-min Rain = 0
KPD3 132249Z 07007KT 18/M04 A2992 RMK A01 T01841035  RH  022%=      5-min Rain = 0
KPD3 132250Z 06006KT 18/M04 A2992 RMK A01 T01841035  RH  022%=      5-min Rain = 0
KPD3 132251Z 06007KT 18/M04 A2992 RMK A01 T01831035  RH  022%=      5-min Rain = 0
KPD3 132252Z 07007KT 18/M04 A2992 RMK A01 T01831035  RH  023%=      5-min Rain = 0
KPD3 132253Z 06006KT 18/M03 A2992 RMK A01 T01821034  RH  023%=      5-min Rain = 0
KPD3 132254Z 07006KT 18/M03 A2992 RMK A01 T01811034  RH  023%=      5-min Rain = 0
KPD3 132255Z 07006KT 18/M03 A2992 RMK A01 T01811034  RH  023%=      5-min Rain = 0
KPD3 132256Z 07006KT 18/M03 A2992 RMK A01 T01801033  RH  023%=      5-min Rain = 0
KPD3 132257Z 07006KT 18/M03 A2992 RMK A01 T01791033  RH  023%=      5-min Rain = 0
KPD3 132258Z 07008KT 18/M03 A2992 RMK A01 T01781034  RH  023%=      5-min Rain = 0
KPD3 132259Z 07008KT 18/M03 A2992 RMK A01 T01781034  RH  023%=      5-min Rain = 0
KPD3 132300Z 07008KT 18/M04 A2992 RMK A01 T01771035  RH  023%=      5-min Rain = 0
KPD3 132301Z 07008KT 18/M04 A2992 RMK A01 T01771035  RH  023%=      5-min Rain = 0
KPD3 132302Z 07007KT 18/M03 A2992 RMK A01 T01761034  RH  024%=      5-min Rain = 0
KPD3 132303Z 07007KT 18/M03 A2992 RMK A01 T01751034  RH  024%=      5-min Rain = 0
KPD3 132304Z 07007KT 17/M03 A2992 RMK A01 T01741034  RH  024%=      5-min Rain = 0
KPD3 132305Z 07007KT 17/M03 A2992 RMK A01 T01731034  RH  024%=      5-min Rain = 0
KPD3 132306Z 07007KT 17/M03 A2992 RMK A01 T01721034  RH  024%=      5-min Rain = 0
KPD3 132307Z 07007KT 17/M03 A2992 RMK A01 T01711034  RH  024%=      5-min Rain = 0
KPD3 132308Z 07007KT 17/M03 A2992 RMK A01 T01701034  RH  025%=      5-min Rain = 0
KPD3 132309Z 07006KT 17/M03 A2992 RMK A01 T01691034  RH  025%=      5-min Rain = 0
KPD3 132310Z 07006KT 17/M03 A2992 RMK A01 T01681034  RH  025%=      5-min Rain = 0
KPD3 132311Z 07006KT 17/M03 A2992 RMK A01 T01671034  RH  025%=      5-min Rain = 0
KPD3 132312Z 07006KT 17/M03 A2992 RMK A01 T01661034  RH  025%=      5-min Rain = 0
KPD3 132313Z 07006KT 17/M03 A2992 RMK A01 T01651034  RH  025%=      5-min Rain = 0
KPD3 132314Z 07006KT 16/M04 A2992 RMK A01 T01631035  RH  026%=      5-min Rain = 0
KPD3 132315Z 07006KT 16/M04 A2993 RMK A01 T01621035  RH  026%=      5-min Rain = 0
KPD3 132316Z 07006KT 16/M03 A2993 RMK A01 T01611034  RH  026%=      5-min Rain = 0
KPD3 132317Z 07006KT 16/M03 A2993 RMK A01 T01601034  RH  026%=      5-min Rain = 0
KPD3 132318Z 06006KT 16/M04 A2993 RMK A01 T01581035  RH  026%=      5-min Rain = 0
KPD3 132319Z 06006KT 16/M04 A2993 RMK A01 T01571035  RH  027%=      5-min Rain = 0
KPD3 132320Z 06006KT 16/M04 A2993 RMK A01 T01561035  RH  027%=      5-min Rain = 0
KPD3 132321Z 06006KT 16/M04 A2993 RMK A01 T01551035  RH  027%=      5-min Rain = 0
KPD3 132322Z 06006KT 15/M04 A2993 RMK A01 T01541036  RH  027%=      5-min Rain = 0
KPD3 132323Z 06006KT 15/M04 A2993 RMK A01 T01531036  RH  027%=      5-min Rain = 0
KPD3 132324Z 06006KT 15/M04 A2993 RMK A01 T01531036  RH  027%=      5-min Rain = 0
KPD3 132325Z 05006KT 15/M04 A2993 RMK A01 T01501036  RH  027%=      5-min Rain = 0
KPD3 132326Z 06006KT 15/M04 A2993 RMK A01 T01481037  RH  028%=      5-min Rain = 0
KPD3 132327Z 06005KT 15/M04 A2993 RMK A01 T01471036  RH  028%=      5-min Rain = 0
KPD3 132328Z 06005KT 15/M04 A2993 RMK A01 T01451037  RH  028%=      5-min Rain = 0
KPD3 132329Z 06006KT 14/M04 A2993 RMK A01 T01431037  RH  029%=      5-min Rain = 0
KPD3 132330Z 06006KT 14/M04 A2994 RMK A01 T01421037  RH  029%=      5-min Rain = 0
KPD3 132331Z 06006KT 14/M04 A2994 RMK A01 T01411037  RH  029%=      5-min Rain = 0
KPD3 132332Z 05006KT 14/M04 A2994 RMK A01 T01391037  RH  029%=      5-min Rain = 0
KPD3 132333Z 05006KT 14/M04 A2994 RMK A01 T01381037  RH  029%=      5-min Rain = 0
KPD3 132334Z 05006KT 14/M04 A2994 RMK A01 T01361037  RH  030%=      5-min Rain = 0
KPD3 132335Z 06007KT 13/M04 A2994 RMK A01 T01341038  RH  030%=      5-min Rain = 0
KPD3 132336Z 05007KT 13/M04 A2994 RMK A01 T01321038  RH  030%=      5-min Rain = 0
KPD3 132337Z 05007KT 13/M04 A2994 RMK A01 T01301038  RH  031%=      5-min Rain = 0
KPD3 132338Z 05007KT 13/M04 A2994 RMK A01 T01291038  RH  031%=      5-min Rain = 0
KPD3 132339Z 06007KT 13/M04 A2994 RMK A01 T01271038  RH  031%=      5-min Rain = 0
KPD3 132340Z 06008KT 13/M04 A2994 RMK A01 T01261038  RH  032%=      5-min Rain = 0
KPD3 132341Z 06008KT 13/M04 A2994 RMK A01 T01251038  RH  032%=      5-min Rain = 0
KPD3 132342Z 06007KT 12/M04 A2994 RMK A01 T01241038  RH  032%=      5-min Rain = 0
KPD3 132343Z 06007KT 12/M04 A2994 RMK A01 T01231038  RH  032%=      5-min Rain = 0
KPD3 132344Z 06007KT 12/M04 A2994 RMK A01 T01211038  RH  033%=      5-min Rain = 0
KPD3 132345Z 06007KT 12/M04 A2994 RMK A01 T01201038  RH  033%=      5-min Rain = 0
KPD3 132346Z 07007KT 12/M04 A2994 RMK A01 T01191038  RH  033%=      5-min Rain = 0
KPD3 132347Z 07007KT 12/M04 A2995 RMK A01 T01181038  RH  033%=      5-min Rain = 0
KPD3 132348Z 07007KT 12/M04 A2995 RMK A01 T01171038  RH  034%=      5-min Rain = 0
KPD3 132349Z 07006KT 12/M04 A2995 RMK A01 T01161038  RH  034%=      5-min Rain = 0
KPD3 132350Z 06006KT 12/M04 A2995 RMK A01 T01151038  RH  034%=      5-min Rain = 0
KPD3 132351Z 06006KT 12/M04 A2995 RMK A01 T01151038  RH  034%=      5-min Rain = 0
KPD3 132352Z 06006KT 11/M04 A2995 RMK A01 T01141039  RH  034%=      5-min Rain = 0
KPD3 132353Z 06005KT 11/M04 A2995 RMK A01 T01131038  RH  034%=      5-min Rain = 0
KPD3 132354Z 06006KT 11/M04 A2995 RMK A01 T01131038  RH  035%=      5-min Rain = 0
KPD3 132355Z 06006KT 11/M04 A2995 RMK A01 T01121038  RH  035%=      5-min Rain = 0
KPD3 132356Z 06006KT 11/M04 A2995 RMK A01 T01111038  RH  035%=      5-min Rain = 0
KPD3 132357Z 06006KT 11/M04 A2995 RMK A01 T01111038  RH  035%=      5-min Rain = 0
KPD3 132358Z 06006KT 11/M04 A2995 RMK A01 T01101039  RH  035%=      5-min Rain = 0
KPD3 132359Z 06006KT 11/M04 A2995 RMK A01 T01091039  RH  035%=      5-min Rain = 0
KPD3 140000Z 06006KT 11/M04 A2995 RMK A01 T01091038  RH  035%=      5-min Rain = 0
KPD3 140001Z 06006KT 11/M04 A2995 RMK A01 T01081038  RH  036%=      5-min Rain = 0
KPD3 140002Z 06006KT 11/M04 A2995 RMK A01 T01081038  RH  036%=      5-min Rain = 0
KPD3 140003Z 06006KT 11/M04 A2995 RMK A01 T01071038  RH  036%=      5-min Rain = 0
KPD3 140004Z 07006KT 11/M04 A2995 RMK A01 T01071038  RH  036%=      5-min Rain = 0
KPD3 140005Z 07007KT 11/M04 A2995 RMK A01 T01071037  RH  036%=      5-min Rain = 0
KPD3 140006Z 07007KT 11/M04 A2995 RMK A01 T01061038  RH  036%=      5-min Rain = 0
KPD3 140007Z 08007KT 10/M04 A2995 RMK A01 T01041038  RH  037%=      5-min Rain = 0
KPD3 140008Z 09007KT 10/M04 A2995 RMK A01 T01031038  RH  037%=      5-min Rain = 0
KPD3 140009Z 08008KT 10/M04 A2996 RMK A01 T01011038  RH  037%=      5-min Rain = 0
KPD3 140010Z 08009KT 10/M04 A2996 RMK A01 T01011036  RH  038%=      5-min Rain = 0
KPD3 140011Z 08008KT 10/M03 A2996 RMK A01 T01011034  RH  039%=      5-min Rain = 0
KPD3 140012Z 09007KT 10/M03 A2996 RMK A01 T01021032  RH  039%=      5-min Rain = 0
KPD3 140013Z 10007KT 10/M03 A2996 RMK A01 T01031032  RH  039%=      5-min Rain = 0
KPD3 140014Z 10007KT 10/M03 A2996 RMK A01 T01021032  RH  039%=      5-min Rain = 0
KPD3 140015Z 09007KT 10/M03 A2996 RMK A01 T01001033  RH  039%=      5-min Rain = 0
KPD3 140016Z 09007KT 10/M03 A2996 RMK A01 T00991032  RH  040%=      5-min Rain = 0
KPD3 140017Z 08006KT 10/M03 A2996 RMK A01 T00981031  RH  040%=      5-min Rain = 0
KPD3 140018Z 07006KT 10/M03 A2996 RMK A01 T00971030  RH  041%=      5-min Rain = 0
KPD3 140019Z 07006KT 10/M03 A2996 RMK A01 T00971029  RH  041%=      5-min Rain = 0
KPD3 140020Z 08006KT 10/M03 A2996 RMK A01 T00961029  RH  041%=      5-min Rain = 0
KPD3 140021Z 08007KT 10/M03 A2996 RMK A01 T00961030  RH  041%=      5-min Rain = 0
KPD3 140022Z 09007KT 10/M03 A2996 RMK A01 T00981029  RH  041%=      5-min Rain = 0
KPD3 140023Z 09007KT 10/M03 A2996 RMK A01 T00991027  RH  041%=      5-min Rain = 0
KPD3 140024Z 10007KT 10/M02 A2996 RMK A01 T01001024  RH  042%=      5-min Rain = 0
KPD3 140025Z 10007KT 10/M02 A2996 RMK A01 T01001024  RH  042%=      5-min Rain = 0
KPD3 140026Z 10007KT 10/M02 A2996 RMK A01 T00981023  RH  043%=      5-min Rain = 0
KPD3 140027Z 09007KT 10/M02 A2997 RMK A01 T00961023  RH  043%=      5-min Rain = 0
KPD3 140028Z 08007KT 09/M02 A2997 RMK A01 T00941022  RH  044%=      5-min Rain = 0
KPD3 140029Z 08006KT 09/M02 A2997 RMK A01 T00931023  RH  044%=      5-min Rain = 0
KPD3 140030Z 07006KT 09/M02 A2997 RMK A01 T00921023  RH  044%=      5-min Rain = 0
KPD3 140031Z 08006KT 09/M02 A2997 RMK A01 T00921023  RH  045%=      5-min Rain = 0
KPD3 140032Z 08007KT 09/M02 A2997 RMK A01 T00911023  RH  045%=      5-min Rain = 0
KPD3 140033Z 08006KT 09/M02 A2997 RMK A01 T00921021  RH  045%=      5-min Rain = 0
KPD3 140034Z 08006KT 09/M02 A2997 RMK A01 T00921022  RH  045%=      5-min Rain = 0
KPD3 140035Z 08006KT 09/M02 A2997 RMK A01 T00921022  RH  045%=      5-min Rain = 0
KPD3 140036Z 08006KT 09/M02 A2997 RMK A01 T00921021  RH  045%=      5-min Rain = 0
KPD3 140037Z 08006KT 09/M02 A2997 RMK A01 T00911021  RH  045%=      5-min Rain = 0
KPD3 140038Z 08006KT 09/M02 A2997 RMK A01 T00911020  RH  046%=      5-min Rain = 0
KPD3 140039Z 09006KT 09/M02 A2997 RMK A01 T00911019  RH  046%=      5-min Rain = 0
KPD3 140040Z 09006KT 09/M02 A2997 RMK A01 T00921019  RH  046%=      5-min Rain = 0
KPD3 140041Z 09007KT 09/M02 A2997 RMK A01 T00921017  RH  046%=      5-min Rain = 0
KPD3 140042Z 09007KT 09/M02 A2997 RMK A01 T00931016  RH  046%=      5-min Rain = 0
KPD3 140043Z 09007KT 09/M02 A2997 RMK A01 T00931015  RH  047%=      5-min Rain = 0
KPD3 140044Z 08007KT 09/M01 A2998 RMK A01 T00941014  RH  047%=      5-min Rain = 0
KPD3 140045Z 08006KT 09/M01 A2998 RMK A01 T00941014  RH  047%=      5-min Rain = 0
KPD3 140046Z 08006KT 09/M01 A2998 RMK A01 T00941014  RH  047%=      5-min Rain = 0
KPD3 140047Z 08006KT 09/M01 A2998 RMK A01 T00931014  RH  047%=      5-min Rain = 0
KPD3 140048Z 07005KT 09/M01 A2998 RMK A01 T00931014  RH  047%=      5-min Rain = 0
KPD3 140049Z 08006KT 09/M01 A2998 RMK A01 T00931013  RH  047%=      5-min Rain = 0
KPD3 140050Z 08005KT 09/M01 A2998 RMK A01 T00921013  RH  048%=      5-min Rain = 0
KPD3 140051Z 08005KT 09/M01 A2998 RMK A01 T00921013  RH  048%=      5-min Rain = 0
KPD3 140052Z 08005KT 09/M01 A2998 RMK A01 T00921013  RH  048%=      5-min Rain = 0
KPD3 140053Z 08005KT 09/M01 A2998 RMK A01 T00911013  RH  048%=      5-min Rain = 0
KPD3 140054Z 08006KT 09/M01 A2998 RMK A01 T00901012  RH  049%=      5-min Rain = 0
KPD3 140055Z 08005KT 09/M01 A2998 RMK A01 T00891012  RH  049%=      5-min Rain = 0
KPD3 140056Z 07005KT 09/M01 A2998 RMK A01 T00881012  RH  049%=      5-min Rain = 0
KPD3 140057Z 07005KT 09/M01 A2998 RMK A01 T00871011  RH  050%=      5-min Rain = 0
KPD3 140058Z 07005KT 09/M01 A2998 RMK A01 T00861012  RH  050%=      5-min Rain = 0
KPD3 140059Z 07005KT 09/M01 A2998 RMK A01 T00871011  RH  050%=      5-min Rain = 0
KPD3 140100Z 07006KT 09/M01 A2998 RMK A01 T00861011  RH  051%=      5-min Rain = 0
KPD3 140101Z 07006KT 09/M01 A2998 RMK A01 T00871010  RH  051%=      5-min Rain = 0
KPD3 140102Z 07006KT 09/M01 A2999 RMK A01 T00871010  RH  051%=      5-min Rain = 0
KPD3 140103Z 07006KT 09/M01 A2999 RMK A01 T00871010  RH  051%=      5-min Rain = 0
KPD3 140104Z 07006KT 09/M01 A2999 RMK A01 T00871009  RH  051%=      5-min Rain = 0
KPD3 140105Z 07006KT 09/M01 A2999 RMK A01 T00871010  RH  051%=      5-min Rain = 0
KPD3 140106Z 07006KT 09/M01 A2999 RMK A01 T00871009  RH  051%=      5-min Rain = 0
KPD3 140107Z 07006KT 09/M01 A2999 RMK A01 T00871009  RH  051%=      5-min Rain = 0
KPD3 140108Z 07006KT 09/M01 A2999 RMK A01 T00881009  RH  051%=      5-min Rain = 0
KPD3 140109Z 07007KT 09/M01 A2999 RMK A01 T00871009  RH  051%=      5-min Rain = 0
KPD3 140110Z 07006KT 09/M01 A2999 RMK A01 T00881009  RH  051%=      5-min Rain = 0
KPD3 140111Z 06006KT 09/M01 A2999 RMK A01 T00881009  RH  051%=      5-min Rain = 0
KPD3 140112Z 06006KT 09/M01 A30 RMK A01 T00881009  RH  051%=      5-min Rain = 0
KPD3 140113Z 06005KT 09/M01 A30 RMK A01 T00881008  RH  051%=      5-min Rain = 0
KPD3 140114Z 06005KT 09/M01 A30 RMK A01 T00871009  RH  051%=      5-min Rain = 0
KPD3 140115Z 06005KT 09/M01 A30 RMK A01 T00861010  RH  051%=      5-min Rain = 0
KPD3 140116Z 04004KT 08/M01 A30 RMK A01 T00841012  RH  051%=      5-min Rain = 0
KPD3 140117Z 04004KT 08/M02 A30 RMK A01 T00771017  RH  051%=      5-min Rain = 0
KPD3 140118Z 03004KT 07/M02 A30 RMK A01 T00711018  RH  053%=      5-min Rain = 0
KPD3 140119Z 03003KT 07/M02 A30 RMK A01 T00681018  RH  055%=      5-min Rain = 0
KPD3 140120Z 23003KT 07/M02 A30 RMK A01 T00661016  RH  056%=      5-min Rain = 0
KPD3 140121Z 25003KT 07/M02 A30 RMK A01 T00661016  RH  056%=      5-min Rain = 0
KPD3 140122Z 27003KT 07/M02 A30 RMK A01 T00661016  RH  056%=      5-min Rain = 0
KPD3 140123Z 28002KT 07/M02 A30 RMK A01 T00651016  RH  056%=      5-min Rain = 0
KPD3 140124Z 04004KT 06/M02 A30 RMK A01 T00641015  RH  057%=      5-min Rain = 0
KPD3 140125Z 03005KT 07/M01 A3001 RMK A01 T00651014  RH  057%=      5-min Rain = 0
KPD3 140126Z 03005KT 07/M01 A3001 RMK A01 T00661014  RH  057%=      5-min Rain = 0
KPD3 140127Z 03005KT 07/M01 A3001 RMK A01 T00661014  RH  057%=      5-min Rain = 0
KPD3 140128Z 02005KT 07/M01 A3001 RMK A01 T00661014  RH  057%=      5-min Rain = 0
KPD3 140129Z 02005KT 07/M01 A3001 RMK A01 T00661014  RH  057%=      5-min Rain = 0
KPD3 140130Z 01005KT 07/M02 A3001 RMK A01 T00651015  RH  056%=      5-min Rain = 0
KPD3 140131Z 01005KT 06/M02 A3001 RMK A01 T00591024  RH  055%=      5-min Rain = 0
KPD3 140132Z 36005KT 05/M03 A3001 RMK A01 T00491030  RH  056%=      5-min Rain = 0
KPD3 140133Z 36005KT 04/M03 A3001 RMK A01 T00431031  RH  059%=      5-min Rain = 0
KPD3 140134Z 35005KT 04/M03 A3001 RMK A01 T00401029  RH  060%=      5-min Rain = 0
KPD3 140135Z 34006KT 04/M03 A3001 RMK A01 T00391028  RH  061%=      5-min Rain = 0
KPD3 140136Z 35006KT 04/M03 A3001 RMK A01 T00391027  RH  062%=      5-min Rain = 0
KPD3 140137Z 35006KT 04/M03 A3001 RMK A01 T00401025  RH  063%=      5-min Rain = 0
KPD3 140138Z 35006KT 04/M02 A3001 RMK A01 T00411024  RH  063%=      5-min Rain = 0
KPD3 140139Z 35006KT 04/M02 A3001 RMK A01 T00411024  RH  063%=      5-min Rain = 0
KPD3 140140Z 35006KT 04/M02 A3001 RMK A01 T00411023  RH  063%=      5-min Rain = 0
KPD3 140141Z 36006KT 04/M02 A3001 RMK A01 T00411023  RH  063%=      5-min Rain = 0
KPD3 140142Z 36006KT 04/M02 A3002 RMK A01 T00411022  RH  063%=      5-min Rain = 0
KPD3 140143Z 36006KT 04/M02 A3002 RMK A01 T00431020  RH  064%=      5-min Rain = 0
KPD3 140144Z 36006KT 04/M02 A3002 RMK A01 T00431020  RH  063%=      5-min Rain = 0
KPD3 140145Z 35006KT 04/M02 A3002 RMK A01 T00431020  RH  063%=      5-min Rain = 0
KPD3 140146Z 34006KT 04/M02 A3002 RMK A01 T00431020  RH  063%=      5-min Rain = 0
KPD3 140147Z 34006KT 04/M02 A3002 RMK A01 T00421020  RH  064%=      5-min Rain = 0
KPD3 140148Z 34006KT 04/M02 A3002 RMK A01 T00421020  RH  064%=      5-min Rain = 0
KPD3 140149Z 34006KT 04/M02 A3002 RMK A01 T00421020  RH  064%=      5-min Rain = 0
KPD3 140150Z 34006KT 04/M02 A3002 RMK A01 T00411021  RH  064%=      5-min Rain = 0
KPD3 140151Z 35007KT 04/M02 A3002 RMK A01 T00401022  RH  064%=      5-min Rain = 0
KPD3 140152Z 35007KT 04/M02 A3002 RMK A01 T00401022  RH  064%=      5-min Rain = 0
KPD3 140153Z 35007KT 04/M02 A3002 RMK A01 T00401021  RH  064%=      5-min Rain = 0
KPD3 140154Z 35007KT 04/M02 A3002 RMK A01 T00401022  RH  064%=      5-min Rain = 0
KPD3 140155Z 35007KT 04/M02 A3002 RMK A01 T00401022  RH  064%=      5-min Rain = 0
KPD3 140156Z 35007KT 04/M02 A3002 RMK A01 T00401022  RH  064%=      5-min Rain = 0
KPD3 140157Z 35006KT 04/M02 A3002 RMK A01 T00381023  RH  064%=      5-min Rain = 0
KPD3 140158Z 34007KT 04/M02 A3002 RMK A01 T00371024  RH  065%=      5-min Rain = 0
KPD3 140159Z 34007KT 04/M02 A3002 RMK A01 T00351024  RH  065%=      5-min Rain = 0
KPD3 140200Z 34007KT 04/M02 A3002 RMK A01 T00351024  RH  065%=      5-min Rain = 0
KPD3 140201Z 35007KT 03/M03 A3002 RMK A01 T00331025  RH  066%=      5-min Rain = 0
KPD3 140202Z 34007KT 03/M02 A3002 RMK A01 T00331024  RH  066%=      5-min Rain = 0
KPD3 140203Z 34007KT 03/M02 A3002 RMK A01 T00341023  RH  066%=      5-min Rain = 0
KPD3 140204Z 34007KT 03/M02 A3002 RMK A01 T00341023  RH  066%=      5-min Rain = 0
KPD3 140205Z 35007KT 03/M02 A3002 RMK A01 T00331024  RH  066%=      5-min Rain = 0
KPD3 140206Z 35007KT 03/M02 A3002 RMK A01 T00321024  RH  066%=      5-min Rain = 0
KPD3 140207Z 35007KT 03/M02 A3003 RMK A01 T00321024  RH  067%=      5-min Rain = 0
KPD3 140208Z 35007KT 03/M02 A3003 RMK A01 T00321023  RH  067%=      5-min Rain = 0
KPD3 140209Z 35007KT 03/M02 A3003 RMK A01 T00331023  RH  067%=      5-min Rain = 0
KPD3 140210Z 35007KT 03/M02 A3003 RMK A01 T00341022  RH  067%=      5-min Rain = 0
KPD3 140211Z 35007KT 04/M02 A3003 RMK A01 T00351021  RH  067%=      5-min Rain = 0
KPD3 140212Z 35007KT 04/M02 A3003 RMK A01 T00361021  RH  066%=      5-min Rain = 0
KPD3 140213Z 35008KT 04/M02 A3003 RMK A01 T00371021  RH  066%=      5-min Rain = 0
KPD3 140214Z 35007KT 04/M02 A3003 RMK A01 T00381020  RH  066%=      5-min Rain = 0
KPD3 140215Z 35007KT 04/M02 A3003 RMK A01 T00401019  RH  066%=      5-min Rain = 0
KPD3 140216Z 36007KT 04/M02 A3003 RMK A01 T00411019  RH  065%=      5-min Rain = 0
KPD3 140217Z 36008KT 04/M02 A3003 RMK A01 T00421018  RH  065%=      5-min Rain = 0
KPD3 140218Z 00008KT 04/M02 A3003 RMK A01 T00431018  RH  065%=      5-min Rain = 0
KPD3 140219Z 00008KT 04/M02 A3003 RMK A01 T00441018  RH  064%=      5-min Rain = 0
KPD3 140220Z 36008KT 04/M02 A3003 RMK A01 T00441018  RH  064%=      5-min Rain = 0
KPD3 140221Z 36008KT 05/M02 A3003 RMK A01 T00451018  RH  064%=      5-min Rain = 0
KPD3 140222Z 36008KT 05/M02 A3003 RMK A01 T00451018  RH  064%=      5-min Rain = 0
KPD3 140223Z 00008KT 05/M02 A3003 RMK A01 T00451018  RH  064%=      5-min Rain = 0
KPD3 140224Z 36008KT 05/M02 A3003 RMK A01 T00451018  RH  064%=      5-min Rain = 0
KPD3 140225Z 00008KT 04/M02 A3003 RMK A01 T00441018  RH  064%=      5-min Rain = 0
KPD3 140226Z 00008KT 05/M02 A3003 RMK A01 T00451018  RH  064%=      5-min Rain = 0
KPD3 140227Z 00008KT 04/M02 A3003 RMK A01 T00441017  RH  064%=      5-min Rain = 0
KPD3 140228Z 00008KT 04/M02 A3003 RMK A01 T00441018  RH  064%=      5-min Rain = 0
KPD3 140229Z 36008KT 04/M02 A3003 RMK A01 T00441018  RH  064%=      5-min Rain = 0
KPD3 140230Z 00008KT 04/M02 A3003 RMK A01 T00441018  RH  064%=      5-min Rain = 0
KPD3 140231Z 00008KT 04/M02 A3003 RMK A01 T00441018  RH  064%=      5-min Rain = 0
KPD3 140232Z 00008KT 04/M02 A3003 RMK A01 T00441017  RH  064%=      5-min Rain = 0
KPD3 140233Z 00008KT 04/M02 A3003 RMK A01 T00441017  RH  064%=      5-min Rain = 0
KPD3 140234Z 00008KT 04/M02 A3003 RMK A01 T00441017  RH  065%=      5-min Rain = 0
KPD3 140235Z 01008KT 04/M02 A3004 RMK A01 T00441017  RH  065%=      5-min Rain = 0
KPD3 140236Z 00008KT 04/M02 A3004 RMK A01 T00441016  RH  065%=      5-min Rain = 0
KPD3 140237Z 00008KT 04/M02 A3004 RMK A01 T00441016  RH  065%=      5-min Rain = 0
KPD3 140238Z 00008KT 04/M02 A3004 RMK A01 T00441016  RH  065%=      5-min Rain = 0
KPD3 140239Z 36008KT 04/M02 A3004 RMK A01 T00441016  RH  065%=      5-min Rain = 0
KPD3 140240Z 00008KT 05/M02 A3004 RMK A01 T00451016  RH  065%=      5-min Rain = 0
KPD3 140241Z 00008KT 05/M02 A3004 RMK A01 T00451016  RH  064%=      5-min Rain = 0
KPD3 140242Z 36008KT 05/M02 A3004 RMK A01 T00461016  RH  064%=      5-min Rain = 0
KPD3 140243Z 00008KT 05/M02 A3004 RMK A01 T00461016  RH  064%=      5-min Rain = 0
KPD3 140244Z 00008KT 05/M02 A3004 RMK A01 T00471015  RH  064%=      5-min Rain = 0
KPD3 140245Z 00008KT 05/M02 A3004 RMK A01 T00481015  RH  064%=      5-min Rain = 0
KPD3 140246Z 36007KT 05/M02 A3004 RMK A01 T00481015  RH  064%=      5-min Rain = 0
KPD3 140247Z 36008KT 05/M02 A3004 RMK A01 T00481015  RH  063%=      5-min Rain = 0
KPD3 140248Z 36007KT 05/M02 A3005 RMK A01 T00481015  RH  063%=      5-min Rain = 0
KPD3 140249Z 36007KT 05/M02 A3005 RMK A01 T00481016  RH  063%=      5-min Rain = 0
KPD3 140250Z 36007KT 05/M02 A3005 RMK A01 T00471016  RH  064%=      5-min Rain = 0
KPD3 140251Z 36007KT 05/M02 A3005 RMK A01 T00461017  RH  064%=      5-min Rain = 0
KPD3 140252Z 35007KT 05/M02 A3005 RMK A01 T00451017  RH  064%=      5-min Rain = 0
KPD3 140253Z 35007KT 04/M02 A3005 RMK A01 T00441018  RH  064%=      5-min Rain = 0
KPD3 140254Z 35007KT 04/M02 A3005 RMK A01 T00431018  RH  065%=      5-min Rain = 0
KPD3 140255Z 35007KT 04/M02 A3005 RMK A01 T00421018  RH  065%=      5-min Rain = 0
KPD3 140256Z 35007KT 04/M02 A3005 RMK A01 T00411019  RH  065%=      5-min Rain = 0
KPD3 140257Z 35007KT 04/M02 A3005 RMK A01 T00401019  RH  065%=      5-min Rain = 0
KPD3 140258Z 35007KT 04/M02 A3005 RMK A01 T00401019  RH  065%=      5-min Rain = 0
KPD3 140259Z 35007KT 04/M02 A3005 RMK A01 T00391020  RH  066%=      5-min Rain = 0
KPD3 140300Z 35007KT 04/M02 A3005 RMK A01 T00381020  RH  066%=      5-min Rain = 0
KPD3 140301Z 35007KT 04/M02 A3005 RMK A01 T00381020  RH  066%=      5-min Rain = 0
KPD3 140302Z 35007KT 04/M02 A3005 RMK A01 T00361020  RH  066%=      5-min Rain = 0
KPD3 140303Z 35007KT 04/M02 A3005 RMK A01 T00351020  RH  067%=      5-min Rain = 0
KPD3 140304Z 35007KT 04/M02 A3005 RMK A01 T00351021  RH  067%=      5-min Rain = 0
KPD3 140305Z 35007KT 03/M02 A3006 RMK A01 T00331021  RH  068%=      5-min Rain = 0
KPD3 140306Z 35007KT 03/M02 A3006 RMK A01 T00331021  RH  068%=      5-min Rain = 0
KPD3 140307Z 35006KT 03/M02 A3006 RMK A01 T00321021  RH  068%=      5-min Rain = 0
KPD3 140308Z 35006KT 03/M02 A3006 RMK A01 T00321021  RH  068%=      5-min Rain = 0
KPD3 140309Z 34006KT 03/M02 A3006 RMK A01 T00311021  RH  069%=      5-min Rain = 0
KPD3 140310Z 34006KT 03/M02 A3006 RMK A01 T00291023  RH  069%=      5-min Rain = 0
KPD3 140311Z 34006KT 03/M02 A3006 RMK A01 T00271024  RH  069%=      5-min Rain = 0
KPD3 140312Z 34006KT 02/M03 A3006 RMK A01 T00241025  RH  070%=      5-min Rain = 0
KPD3 140313Z 34006KT 02/M03 A3006 RMK A01 T00231025  RH  071%=      5-min Rain = 0
KPD3 140314Z 34006KT 02/M03 A3006 RMK A01 T00221025  RH  071%=      5-min Rain = 0
KPD3 140315Z 34005KT 02/M03 A3006 RMK A01 T00211026  RH  071%=      5-min Rain = 0
KPD3 140316Z 34006KT 02/M03 A3006 RMK A01 T00201026  RH  072%=      5-min Rain = 0
KPD3 140317Z 34006KT 02/M03 A3006 RMK A01 T00191026  RH  072%=      5-min Rain = 0
KPD3 140318Z 33006KT 02/M03 A3006 RMK A01 T00181026  RH  073%=      5-min Rain = 0
KPD3 140319Z 33007KT 02/M03 A3006 RMK A01 T00171026  RH  073%=      5-min Rain = 0
KPD3 140320Z 33007KT 02/M03 A3007 RMK A01 T00171026  RH  073%=      5-min Rain = 0
KPD3 140321Z 33007KT 02/M03 A3007 RMK A01 T00161027  RH  074%=      5-min Rain = 0
KPD3 140322Z 34007KT 02/M03 A3007 RMK A01 T00151027  RH  074%=      5-min Rain = 0
KPD3 140323Z 34008KT 01/M03 A3007 RMK A01 T00141027  RH  074%=      5-min Rain = 0
KPD3 140324Z 34008KT 01/M03 A3007 RMK A01 T00141027  RH  074%=      5-min Rain = 0
KPD3 140325Z 34008KT 01/M03 A3007 RMK A01 T00141026  RH  074%=      5-min Rain = 0
KPD3 140326Z 34008KT 02/M03 A3007 RMK A01 T00151025  RH  075%=      5-min Rain = 0
KPD3 140327Z 34008KT 02/M02 A3007 RMK A01 T00161024  RH  075%=      5-min Rain = 0
KPD3 140328Z 34008KT 02/M02 A3007 RMK A01 T00171024  RH  074%=      5-min Rain = 0
KPD3 140329Z 34008KT 02/M02 A3007 RMK A01 T00181024  RH  074%=      5-min Rain = 0
KPD3 140330Z 34007KT 02/M02 A3007 RMK A01 T00191024  RH  074%=      5-min Rain = 0
KPD3 140331Z 33007KT 02/M02 A3007 RMK A01 T00191024  RH  073%=      5-min Rain = 0
KPD3 140332Z 33008KT 02/M02 A3007 RMK A01 T00191024  RH  073%=      5-min Rain = 0
KPD3 140333Z 33007KT 02/M02 A3007 RMK A01 T00191024  RH  073%=      5-min Rain = 0
KPD3 140334Z 33007KT 02/M02 A3007 RMK A01 T00191024  RH  073%=      5-min Rain = 0
KPD3 140335Z 33007KT 02/M02 A3008 RMK A01 T00191024  RH  073%=      5-min Rain = 0
KPD3 140336Z 33007KT 02/M02 A3008 RMK A01 T00191024  RH  073%=      5-min Rain = 0
KPD3 140337Z 33008KT 02/M02 A3008 RMK A01 T00191024  RH  073%=      5-min Rain = 0
KPD3 140338Z 33008KT 02/M02 A3008 RMK A01 T00191024  RH  073%=      5-min Rain = 0
KPD3 140339Z 33007KT 02/M02 A3008 RMK A01 T00201023  RH  073%=      5-min Rain = 0
KPD3 140340Z 33008KT 02/M02 A3008 RMK A01 T00201023  RH  073%=      5-min Rain = 0
KPD3 140341Z 33008KT 02/M02 A3008 RMK A01 T00211023  RH  073%=      5-min Rain = 0
KPD3 140342Z 33008KT 02/M02 A3008 RMK A01 T00211023  RH  073%=      5-min Rain = 0
KPD3 140343Z 33008KT 02/M02 A3008 RMK A01 T00211023  RH  072%=      5-min Rain = 0
KPD3 140344Z 33008KT 02/M02 A3008 RMK A01 T00211023  RH  072%=      5-min Rain = 0
KPD3 140345Z 33008KT 02/M02 A3008 RMK A01 T00201024  RH  072%=      5-min Rain = 0
KPD3 140346Z 33008KT 02/M02 A3008 RMK A01 T00201024  RH  073%=      5-min Rain = 0
KPD3 140347Z 33009KT 02/M02 A3008 RMK A01 T00201024  RH  073%=      5-min Rain = 0
KPD3 140348Z 33009KT 02/M02 A3008 RMK A01 T00191024  RH  073%=      5-min Rain = 0
KPD3 140349Z 33009KT 02/M02 A3008 RMK A01 T00191024  RH  073%=      5-min Rain = 0
KPD3 140350Z 33009KT 02/M02 A3008 RMK A01 T00191024  RH  073%=      5-min Rain = 0
KPD3 140351Z 33009KT 02/M02 A3008 RMK A01 T00201023  RH  073%=      5-min Rain = 0
KPD3 140352Z 33009KT 02/M02 A3008 RMK A01 T00211023  RH  073%=      5-min Rain = 0
KPD3 140353Z 33009KT 02/M02 A3008 RMK A01 T00211023  RH  073%=      5-min Rain = 0
KPD3 140354Z 33009KT 02/M02 A3008 RMK A01 T00211023  RH  073%=      5-min Rain = 0
KPD3 140355Z 33009KT 02/M02 A3009 RMK A01 T00211023  RH  073%=      5-min Rain = 0
KPD3 140356Z 34009KT 02/M02 A3009 RMK A01 T00211023  RH  073%=      5-min Rain = 0
KPD3 140357Z 34009KT 02/M02 A3009 RMK A01 T00211023  RH  073%=      5-min Rain = 0
KPD3 140358Z 33009KT 02/M02 A3009 RMK A01 T00211023  RH  073%=      5-min Rain = 0
KPD3 140359Z 33009KT 02/M02 A3009 RMK A01 T00211023  RH  072%=      5-min Rain = 0
KPD3 140400Z 33008KT 02/M02 A3009 RMK A01 T00211023  RH  072%=      5-min Rain = 0
KPD3 140401Z 33008KT 02/M02 A3009 RMK A01 T00221022  RH  073%=      5-min Rain = 0
KPD3 140402Z 33008KT 02/M02 A3009 RMK A01 T00221022  RH  072%=      5-min Rain = 0
KPD3 140403Z 33008KT 02/M02 A3009 RMK A01 T00231022  RH  072%=      5-min Rain = 0
KPD3 140404Z 33007KT 02/M02 A3009 RMK A01 T00231021  RH  072%=      5-min Rain = 0
KPD3 140405Z 33007KT 02/M02 A3009 RMK A01 T00241021  RH  072%=      5-min Rain = 0
KPD3 140406Z 33008KT 03/M02 A3009 RMK A01 T00251021  RH  072%=      5-min Rain = 0
KPD3 140407Z 33008KT 03/M02 A3009 RMK A01 T00251021  RH  072%=      5-min Rain = 0
KPD3 140408Z 33007KT 03/M02 A3009 RMK A01 T00261020  RH  072%=      5-min Rain = 0
KPD3 140409Z 33007KT 03/M02 A3009 RMK A01 T00261021  RH  071%=      5-min Rain = 0
KPD3 140410Z 33007KT 03/M02 A3009 RMK A01 T00261021  RH  071%=      5-min Rain = 0
KPD3 140411Z 33007KT 03/M02 A3009 RMK A01 T00251022  RH  071%=      5-min Rain = 0
KPD3 140412Z 33008KT 02/M02 A3009 RMK A01 T00241022  RH  071%=      5-min Rain = 0
KPD3 140413Z 33008KT 02/M02 A3009 RMK A01 T00231024  RH  071%=      5-min Rain = 0
KPD3 140414Z 33007KT 02/M03 A3009 RMK A01 T00211025  RH  072%=      5-min Rain = 0
KPD3 140415Z 33008KT 02/M03 A3009 RMK A01 T00191025  RH  072%=      5-min Rain = 0
KPD3 140416Z 33008KT 02/M03 A3009 RMK A01 T00181025  RH  073%=      5-min Rain = 0
KPD3 140417Z 33008KT 02/M03 A3009 RMK A01 T00171025  RH  074%=      5-min Rain = 0
KPD3 140418Z 33008KT 02/M03 A3009 RMK A01 T00161026  RH  074%=      5-min Rain = 0
KPD3 140419Z 33008KT 02/M03 A3009 RMK A01 T00151026  RH  074%=      5-min Rain = 0
KPD3 140420Z 33008KT 01/M03 A3009 RMK A01 T00141026  RH  075%=      5-min Rain = 0
KPD3 140421Z 33008KT 01/M03 A3009 RMK A01 T00141026  RH  075%=      5-min Rain = 0
KPD3 140422Z 33008KT 01/M03 A3009 RMK A01 T00141025  RH  075%=      5-min Rain = 0
KPD3 140423Z 33008KT 01/M03 A3009 RMK A01 T00141025  RH  075%=      5-min Rain = 0
KPD3 140424Z 33009KT 01/M03 A3009 RMK A01 T00141025  RH  075%=      5-min Rain = 0
KPD3 140425Z 33009KT 01/M03 A3009 RMK A01 T00141025  RH  075%=      5-min Rain = 0
KPD3 140426Z 33009KT 01/M03 A3009 RMK A01 T00141025  RH  075%=      5-min Rain = 0
KPD3 140427Z 33009KT 01/M03 A3009 RMK A01 T00141025  RH  075%=      5-min Rain = 0
KPD3 140428Z 33009KT 02/M03 A3009 RMK A01 T00151025  RH  075%=      5-min Rain = 0
KPD3 140429Z 33008KT 02/M02 A3009 RMK A01 T00161024  RH  075%=      5-min Rain = 0
KPD3 140430Z 33008KT 02/M02 A3009 RMK A01 T00171024  RH  074%=      5-min Rain = 0
KPD3 140431Z 33008KT 02/M02 A3009 RMK A01 T00171024  RH  074%=      5-min Rain = 0
KPD3 140432Z 33008KT 02/M02 A3009 RMK A01 T00181024  RH  074%=      5-min Rain = 0
KPD3 140433Z 33008KT 02/M02 A3009 RMK A01 T00191023  RH  074%=      5-min Rain = 0
KPD3 140434Z 33008KT 02/M02 A301 RMK A01 T00201022  RH  074%=      5-min Rain = 0
KPD3 140435Z 33008KT 02/M02 A301 RMK A01 T00211021  RH  073%=      5-min Rain = 0
KPD3 140436Z 33007KT 02/M02 A301 RMK A01 T00221021  RH  073%=      5-min Rain = 0
KPD3 140437Z 33007KT 02/M02 A301 RMK A01 T00231021  RH  073%=      5-min Rain = 0
KPD3 140438Z 33006KT 02/M02 A301 RMK A01 T00231021  RH  073%=      5-min Rain = 0
KPD3 140439Z 33007KT 02/M02 A301 RMK A01 T00241020  RH  073%=      5-min Rain = 0
KPD3 140440Z 33007KT 02/M02 A301 RMK A01 T00241021  RH  072%=      5-min Rain = 0
KPD3 140441Z 33007KT 02/M02 A301 RMK A01 T00241021  RH  072%=      5-min Rain = 0
KPD3 140442Z 33007KT 02/M02 A301 RMK A01 T00241021  RH  072%=      5-min Rain = 0
KPD3 140443Z 33007KT 02/M02 A301 RMK A01 T00241020  RH  072%=      5-min Rain = 0
KPD3 140444Z 33007KT 03/M02 A301 RMK A01 T00251020  RH  072%=      5-min Rain = 0
KPD3 140445Z 33008KT 03/M02 A301 RMK A01 T00261020  RH  072%=      5-min Rain = 0
KPD3 140446Z 33007KT 03/M02 A301 RMK A01 T00271019  RH  072%=      5-min Rain = 0
KPD3 140447Z 33007KT 03/M02 A301 RMK A01 T00281019  RH  071%=      5-min Rain = 0
KPD3 140448Z 33007KT 03/M02 A301 RMK A01 T00291019  RH  071%=      5-min Rain = 0
KPD3 140449Z 33007KT 03/M02 A301 RMK A01 T00301019  RH  070%=      5-min Rain = 0
KPD3 140450Z 33007KT 03/M02 A301 RMK A01 T00291020  RH  070%=      5-min Rain = 0
KPD3 140451Z 33006KT 03/M02 A301 RMK A01 T00301020  RH  070%=      5-min Rain = 0
KPD3 140452Z 34006KT 03/M02 A301 RMK A01 T00301020  RH  070%=      5-min Rain = 0
KPD3 140453Z 34006KT 03/M02 A301 RMK A01 T00301020  RH  070%=      5-min Rain = 0
KPD3 140454Z 34007KT 03/M02 A301 RMK A01 T00301020  RH  070%=      5-min Rain = 0
KPD3 140455Z 34007KT 03/M02 A301 RMK A01 T00291021  RH  070%=      5-min Rain = 0
KPD3 140456Z 34007KT 03/M02 A301 RMK A01 T00281022  RH  070%=      5-min Rain = 0
KPD3 140457Z 34007KT 03/M02 A301 RMK A01 T00271022  RH  070%=      5-min Rain = 0
KPD3 140458Z 34007KT 03/M02 A301 RMK A01 T00261023  RH  070%=      5-min Rain = 0
KPD3 140459Z 34008KT 03/M02 A301 RMK A01 T00251023  RH  071%=      5-min Rain = 0
KPD3 140500Z 34008KT 03/M02 A301 RMK A01 T00251023  RH  071%=      5-min Rain = 0
KPD3 140501Z 34008KT 03/M02 A3011 RMK A01 T00251023  RH  071%=      5-min Rain = 0
KPD3 140502Z 34007KT 03/M02 A3011 RMK A01 T00251023  RH  071%=      5-min Rain = 0
KPD3 140503Z 34008KT 03/M02 A3011 RMK A01 T00251023  RH  071%=      5-min Rain = 0
KPD3 140504Z 34008KT 03/M02 A3011 RMK A01 T00251023  RH  071%=      5-min Rain = 0
KPD3 140505Z 34007KT 03/M02 A3011 RMK A01 T00251023  RH  071%=      5-min Rain = 0
KPD3 140506Z 34007KT 03/M02 A3011 RMK A01 T00251023  RH  070%=      5-min Rain = 0
KPD3 140507Z 34008KT 03/M02 A3011 RMK A01 T00251024  RH  070%=      5-min Rain = 0
KPD3 140508Z 34008KT 03/M02 A3011 RMK A01 T00251024  RH  070%=      5-min Rain = 0
KPD3 140509Z 34008KT 03/M02 A3011 RMK A01 T00251024  RH  070%=      5-min Rain = 0
KPD3 140510Z 33008KT 03/M03 A3011 RMK A01 T00251025  RH  070%=      5-min Rain = 0
KPD3 140511Z 33007KT 03/M03 A3011 RMK A01 T00251025  RH  070%=      5-min Rain = 0
KPD3 140512Z 34007KT 03/M03 A3011 RMK A01 T00251025  RH  069%=      5-min Rain = 0
KPD3 140513Z 33007KT 03/M03 A3011 RMK A01 T00261026  RH  069%=      5-min Rain = 0
KPD3 140514Z 33006KT 03/M03 A3011 RMK A01 T00251026  RH  069%=      5-min Rain = 0
KPD3 140515Z 33006KT 02/M03 A3011 RMK A01 T00241027  RH  069%=      5-min Rain = 0
KPD3 140516Z 33007KT 02/M03 A3011 RMK A01 T00231028  RH  069%=      5-min Rain = 0
KPD3 140517Z 33007KT 02/M03 A3011 RMK A01 T00211028  RH  070%=      5-min Rain = 0
KPD3 140518Z 33007KT 02/M03 A3011 RMK A01 T00201029  RH  070%=      5-min Rain = 0
KPD3 140519Z 33007KT 02/M03 A3011 RMK A01 T00191029  RH  070%=      5-min Rain = 0
KPD3 140520Z 33007KT 02/M03 A3011 RMK A01 T00191029  RH  071%=      5-min Rain = 0
KPD3 140521Z 32007KT 02/M03 A3011 RMK A01 T00181029  RH  071%=      5-min Rain = 0
KPD3 140522Z 32007KT 02/M03 A3011 RMK A01 T00171030  RH  071%=      5-min Rain = 0
KPD3 140523Z 32007KT 02/M03 A3011 RMK A01 T00161030  RH  071%=      5-min Rain = 0
KPD3 140524Z 32007KT 02/M03 A3011 RMK A01 T00161030  RH  072%=      5-min Rain = 0
KPD3 140525Z 32007KT 02/M03 A3011 RMK A01 T00151030  RH  072%=      5-min Rain = 0
KPD3 140526Z 32007KT 01/M03 A3012 RMK A01 T00141031  RH  072%=      5-min Rain = 0
KPD3 140527Z 32007KT 01/M03 A3012 RMK A01 T00141031  RH  072%=      5-min Rain = 0
KPD3 140528Z 32007KT 01/M03 A3012 RMK A01 T00131032  RH  072%=      5-min Rain = 0
KPD3 140529Z 32007KT 01/M03 A3012 RMK A01 T00121033  RH  072%=      5-min Rain = 0
KPD3 140530Z 33008KT 01/M03 A3012 RMK A01 T00111033  RH  072%=      5-min Rain = 0
KPD3 140531Z 33009KT 01/M03 A3012 RMK A01 T00101034  RH  073%=      5-min Rain = 0
KPD3 140532Z 33009KT 01/M03 A3012 RMK A01 T00101033  RH  073%=      5-min Rain = 0
KPD3 140533Z 33009KT 01/M03 A3012 RMK A01 T00111033  RH  073%=      5-min Rain = 0
KPD3 140534Z 33008KT 01/M03 A3012 RMK A01 T00121033  RH  072%=      5-min Rain = 0
KPD3 140535Z 33008KT 01/M03 A3012 RMK A01 T00121033  RH  072%=      5-min Rain = 0
KPD3 140536Z 33008KT 01/M03 A3012 RMK A01 T00121034  RH  071%=      5-min Rain = 0
KPD3 140537Z 33008KT 01/M03 A3012 RMK A01 T00131034  RH  071%=      5-min Rain = 0
KPD3 140538Z 34008KT 01/M03 A3012 RMK A01 T00131034  RH  071%=      5-min Rain = 0
KPD3 140539Z 34008KT 01/M03 A3012 RMK A01 T00131034  RH  071%=      5-min Rain = 0
KPD3 140540Z 33008KT 01/M03 A3012 RMK A01 T00131034  RH  071%=      5-min Rain = 0
KPD3 140541Z 33008KT 01/M03 A3012 RMK A01 T00131034  RH  070%=      5-min Rain = 0
KPD3 140542Z 33008KT 01/M03 A3012 RMK A01 T00141034  RH  070%=      5-min Rain = 0
KPD3 140543Z 33007KT 02/M03 A3012 RMK A01 T00151034  RH  070%=      5-min Rain = 0
KPD3 140544Z 34007KT 02/M03 A3012 RMK A01 T00151034  RH  070%=      5-min Rain = 0
KPD3 140545Z 34007KT 02/M04 A3012 RMK A01 T00151035  RH  069%=      5-min Rain = 0
KPD3 140546Z 34007KT 02/M04 A3012 RMK A01 T00161035  RH  069%=      5-min Rain = 0
KPD3 140547Z 34007KT 02/M04 A3012 RMK A01 T00171035  RH  068%=      5-min Rain = 0
KPD3 140548Z 34007KT 02/M04 A3012 RMK A01 T00181035  RH  068%=      5-min Rain = 0
KPD3 140549Z 34007KT 02/M04 A3012 RMK A01 T00191035  RH  068%=      5-min Rain = 0
KPD3 140550Z 34007KT 02/M04 A3012 RMK A01 T00191036  RH  067%=      5-min Rain = 0
KPD3 140551Z 34007KT 02/M04 A3012 RMK A01 T00191036  RH  067%=      5-min Rain = 0
KPD3 140552Z 34008KT 02/M04 A3012 RMK A01 T00201036  RH  067%=      5-min Rain = 0
KPD3 140553Z 34008KT 02/M04 A3012 RMK A01 T00201036  RH  066%=      5-min Rain = 0
KPD3 140554Z 34007KT 02/M04 A3012 RMK A01 T00211036  RH  066%=      5-min Rain = 0
KPD3 140555Z 34008KT 02/M04 A3013 RMK A01 T00221036  RH  066%=      5-min Rain = 0
KPD3 140556Z 34008KT 02/M04 A3013 RMK A01 T00221037  RH  065%=      5-min Rain = 0
KPD3 140557Z 34008KT 02/M04 A3013 RMK A01 T00221037  RH  065%=      5-min Rain = 0
KPD3 140558Z 34008KT 02/M04 A3013 RMK A01 T00221037  RH  065%=      5-min Rain = 0
KPD3 140559Z 35008KT 02/M04 A3013 RMK A01 T00221037  RH  065%=      5-min Rain = 0

Page generated in 0.1196 seconds.